AFR97J KMCO-LFPG
Flight info
| Callsign | AFR97J |
|---|---|
| Flight time | 8h 46m |
| Altitude | 37000 |
| Route | JEEMY4 PAINN SHRKS BERTT GURGE RAYVO Q87 NOWAE FAK BOOYA Q34 RBV Q22 LLUND BIZEX Q133 CAM BEEHS JIGZY TAFFY N693A NEEKO 5350N 5440N 5430N 5420N DOGAL BEXET MORAG NUCHU L18 MID Y803 SFD UM605 BIBAX |
| Aircraft | A359/H-SABDE2E3GHIJ1J2J3J4J5M1P2RWXYZ/LB1D1 |
Departure
| Time | 2026-04-25 12:29 |
|---|---|
| Airport | Orlando International Airport (KMCO) |
Arrival
| Time | 2026-04-25 21:15 |
|---|---|
| Airport | Charles de Gaulle International Airport (LFPG) |
| Time | Latitude | Longitude | Altitude | Speed | Heading |
|---|---|---|---|---|---|
| 2026-04-25 11:44 | 28.43540 | -81.31562 | 108 ft | 0 kts | 87° |
| 2026-04-25 12:04 | 28.43539 | -81.31586 | 107 ft | 4 kts | 88° |
| 2026-04-25 12:05 | 28.43542 | -81.31615 | 106 ft | 3 kts | 115° |
| 2026-04-25 12:05 | 28.43553 | -81.31636 | 104 ft | 4 kts | 143° |
| 2026-04-25 12:05 | 28.43575 | -81.31651 | 106 ft | 2 kts | 151° |
| 2026-04-25 12:05 | 28.43577 | -81.31652 | 106 ft | 0 kts | 151° |
| 2026-04-25 12:15 | 28.43576 | -81.31652 | 108 ft | 1 kts | 155° |
| 2026-04-25 12:15 | 28.43559 | -81.31653 | 106 ft | 0 kts | 191° |
| 2026-04-25 12:17 | 28.43538 | -81.31665 | 106 ft | 8 kts | 216° |
| 2026-04-25 12:17 | 28.43507 | -81.31743 | 107 ft | 13 kts | 248° |
| 2026-04-25 12:18 | 28.43469 | -81.31819 | 107 ft | 10 kts | 235° |
| 2026-04-25 12:18 | 28.43431 | -81.31879 | 107 ft | 10 kts | 234° |
| 2026-04-25 12:18 | 28.43415 | -81.31957 | 106 ft | 10 kts | 291° |
| 2026-04-25 12:18 | 28.43462 | -81.31991 | 107 ft | 7 kts | 345° |
| 2026-04-25 12:19 | 28.43527 | -81.31998 | 109 ft | 8 kts | 357° |
| 2026-04-25 12:19 | 28.43610 | -81.31998 | 110 ft | 8 kts | 360° |
| 2026-04-25 12:19 | 28.43653 | -81.31998 | 111 ft | 5 kts | 360° |
| 2026-04-25 12:20 | 28.43688 | -81.31999 | 111 ft | 6 kts | 360° |
| 2026-04-25 12:20 | 28.43734 | -81.31999 | 112 ft | 7 kts | 358° |
| 2026-04-25 12:20 | 28.43772 | -81.32000 | 110 ft | 4 kts | 359° |
| 2026-04-25 12:20 | 28.43797 | -81.32001 | 112 ft | 5 kts | 359° |
| 2026-04-25 12:21 | 28.43827 | -81.32001 | 113 ft | 3 kts | 359° |
| 2026-04-25 12:21 | 28.43861 | -81.32001 | 112 ft | 8 kts | 359° |
| 2026-04-25 12:21 | 28.43921 | -81.32002 | 114 ft | 9 kts | 358° |
| 2026-04-25 12:21 | 28.43979 | -81.32004 | 114 ft | 8 kts | 359° |
| 2026-04-25 12:22 | 28.44039 | -81.32004 | 114 ft | 9 kts | 359° |
| 2026-04-25 12:22 | 28.44110 | -81.32005 | 113 ft | 11 kts | 359° |
| 2026-04-25 12:22 | 28.44193 | -81.32006 | 113 ft | 13 kts | 359° |
| 2026-04-25 12:22 | 28.44287 | -81.32007 | 111 ft | 14 kts | 359° |
| 2026-04-25 12:23 | 28.44391 | -81.32008 | 108 ft | 15 kts | 2° |
| 2026-04-25 12:23 | 28.44447 | -81.32008 | 109 ft | 3 kts | 360° |
| 2026-04-25 12:23 | 28.44475 | -81.32008 | 109 ft | 6 kts | 359° |
| 2026-04-25 12:23 | 28.44524 | -81.32009 | 108 ft | 8 kts | 359° |
| 2026-04-25 12:24 | 28.44592 | -81.32010 | 108 ft | 11 kts | 359° |
| 2026-04-25 12:24 | 28.44673 | -81.32017 | 106 ft | 12 kts | 344° |
| 2026-04-25 12:24 | 28.44712 | -81.32088 | 106 ft | 11 kts | 275° |
| 2026-04-25 12:24 | 28.44712 | -81.32108 | 108 ft | 0 kts | 272° |
| 2026-04-25 12:25 | 28.44713 | -81.32120 | 109 ft | 6 kts | 272° |
| 2026-04-25 12:26 | 28.44708 | -81.32180 | 108 ft | 8 kts | 249° |
| 2026-04-25 12:26 | 28.44671 | -81.32218 | 108 ft | 7 kts | 205° |
| 2026-04-25 12:26 | 28.44620 | -81.32226 | 108 ft | 9 kts | 181° |
| 2026-04-25 12:26 | 28.44604 | -81.32227 | 108 ft | 0 kts | 181° |
| 2026-04-25 12:28 | 28.44594 | -81.32227 | 106 ft | 11 kts | 181° |
| 2026-04-25 12:28 | 28.44291 | -81.32223 | 112 ft | 75 kts | 180° |
| 2026-04-25 12:28 | 28.43574 | -81.32216 | 109 ft | 130 kts | 180° |
| 2026-04-25 12:28 | 28.42524 | -81.32206 | 182 ft | 169 kts | 180° |
| 2026-04-25 12:29 | 28.41437 | -81.32206 | 925 ft | 153 kts | 180° |
| 2026-04-25 12:29 | 28.40300 | -81.32274 | 1219 ft | 168 kts | 188° |
| 2026-04-25 12:29 | 28.39129 | -81.32642 | 1379 ft | 185 kts | 202° |
| 2026-04-25 12:29 | 28.37914 | -81.33319 | 1621 ft | 199 kts | 207° |
| 2026-04-25 12:30 | 28.36654 | -81.34055 | 1853 ft | 213 kts | 206° |
| 2026-04-25 12:30 | 28.35293 | -81.34912 | 2109 ft | 230 kts | 216° |
| 2026-04-25 12:30 | 28.34147 | -81.36211 | 2455 ft | 242 kts | 230° |
| 2026-04-25 12:30 | 28.33069 | -81.37701 | 2856 ft | 251 kts | 230° |
| 2026-04-25 12:31 | 28.31996 | -81.39352 | 3352 ft | 257 kts | 240° |
| 2026-04-25 12:31 | 28.31572 | -81.40606 | 3653 ft | 261 kts | 257° |
| 2026-04-25 12:31 | 28.31236 | -81.43300 | 4377 ft | 264 kts | 263° |
| 2026-04-25 12:31 | 28.31013 | -81.45404 | 4949 ft | 266 kts | 263° |
| 2026-04-25 12:32 | 28.30811 | -81.47495 | 5483 ft | 269 kts | 266° |
| 2026-04-25 12:32 | 28.31045 | -81.49587 | 5986 ft | 271 kts | 291° |
| 2026-04-25 12:32 | 28.32074 | -81.51355 | 6527 ft | 271 kts | 316° |
| 2026-04-25 12:32 | 28.33562 | -81.52693 | 6884 ft | 278 kts | 325° |
| 2026-04-25 12:33 | 28.35124 | -81.53962 | 6998 ft | 279 kts | 323° |
| 2026-04-25 12:33 | 28.36714 | -81.55295 | 7013 ft | 276 kts | 323° |
| 2026-04-25 12:33 | 28.38312 | -81.56487 | 6994 ft | 276 kts | 335° |
| 2026-04-25 12:33 | 28.40143 | -81.57067 | 7063 ft | 276 kts | 351° |
| 2026-04-25 12:34 | 28.42069 | -81.57348 | 7359 ft | 278 kts | 353° |
| 2026-04-25 12:34 | 28.43989 | -81.57580 | 7927 ft | 279 kts | 353° |
| 2026-04-25 12:34 | 28.45918 | -81.57804 | 8494 ft | 279 kts | 353° |
| 2026-04-25 12:34 | 28.46571 | -81.57878 | 8679 ft | 280 kts | 353° |
| 2026-04-25 12:35 | 28.49791 | -81.58226 | 9660 ft | 281 kts | 353° |
| 2026-04-25 12:35 | 28.51754 | -81.58425 | 10183 ft | 284 kts | 353° |
| 2026-04-25 12:35 | 28.53085 | -81.58557 | 10361 ft | 292 kts | 353° |
| 2026-04-25 12:35 | 28.55864 | -81.58692 | 10673 ft | 310 kts | 3° |
| 2026-04-25 12:36 | 28.57309 | -81.58370 | 10845 ft | 319 kts | 15° |
| 2026-04-25 12:36 | 28.59406 | -81.57499 | 11117 ft | 330 kts | 19° |
| 2026-04-25 12:36 | 28.61574 | -81.56529 | 11382 ft | 340 kts | 19° |
| 2026-04-25 12:36 | 28.63816 | -81.55531 | 11638 ft | 349 kts | 19° |
| 2026-04-25 12:37 | 28.66109 | -81.54504 | 11901 ft | 357 kts | 19° |
| 2026-04-25 12:37 | 28.68409 | -81.53468 | 12252 ft | 362 kts | 19° |
| 2026-04-25 12:37 | 28.70787 | -81.52394 | 12665 ft | 365 kts | 19° |
| 2026-04-25 12:37 | 28.73151 | -81.51325 | 13071 ft | 368 kts | 19° |
| 2026-04-25 12:38 | 28.75521 | -81.50252 | 13478 ft | 370 kts | 19° |
| 2026-04-25 12:38 | 28.77928 | -81.49162 | 13871 ft | 372 kts | 19° |
| 2026-04-25 12:38 | 28.80343 | -81.48067 | 14215 ft | 375 kts | 19° |
| 2026-04-25 12:38 | 28.82778 | -81.46963 | 14561 ft | 378 kts | 19° |
| 2026-04-25 12:39 | 28.85231 | -81.45850 | 14894 ft | 381 kts | 19° |
| 2026-04-25 12:39 | 28.87708 | -81.44725 | 15264 ft | 383 kts | 19° |
| 2026-04-25 12:39 | 28.90197 | -81.43595 | 15623 ft | 385 kts | 19° |
| 2026-04-25 12:39 | 28.92687 | -81.42466 | 15984 ft | 388 kts | 19° |
| 2026-04-25 12:40 | 28.95247 | -81.41611 | 16300 ft | 387 kts | 6° |
| 2026-04-25 12:40 | 28.97947 | -81.41558 | 16675 ft | 385 kts | 353° |
| 2026-04-25 12:40 | 29.00605 | -81.41852 | 17043 ft | 387 kts | 352° |
| 2026-04-25 12:40 | 29.03315 | -81.42166 | 17393 ft | 390 kts | 352° |
| 2026-04-25 12:41 | 29.06024 | -81.42473 | 17738 ft | 392 kts | 352° |
| 2026-04-25 12:41 | 29.08740 | -81.42777 | 18086 ft | 395 kts | 352° |
| 2026-04-25 12:41 | 29.11491 | -81.43079 | 18406 ft | 397 kts | 353° |
| 2026-04-25 12:41 | 29.14246 | -81.43341 | 18696 ft | 399 kts | 353° |
| 2026-04-25 12:42 | 29.17029 | -81.43597 | 19013 ft | 401 kts | 353° |
| 2026-04-25 12:42 | 29.18876 | -81.43768 | 19229 ft | 402 kts | 353° |
| 2026-04-25 12:42 | 29.22604 | -81.44117 | 19618 ft | 404 kts | 353° |
| 2026-04-25 12:42 | 29.25409 | -81.44382 | 19919 ft | 405 kts | 353° |
| 2026-04-25 12:43 | 29.28236 | -81.44650 | 20232 ft | 407 kts | 353° |
| 2026-04-25 12:43 | 29.31058 | -81.44918 | 20519 ft | 409 kts | 353° |
| 2026-04-25 12:43 | 29.36752 | -81.45460 | 21090 ft | 412 kts | 353° |
| 2026-04-25 12:44 | 29.39600 | -81.45731 | 21381 ft | 413 kts | 353° |
| 2026-04-25 12:44 | 29.42489 | -81.46007 | 21667 ft | 415 kts | 353° |
| 2026-04-25 12:44 | 29.48254 | -81.46558 | 22218 ft | 418 kts | 353° |
| 2026-04-25 12:45 | 29.51154 | -81.46834 | 22686 ft | 415 kts | 353° |
| 2026-04-25 12:45 | 29.54014 | -81.47107 | 23097 ft | 413 kts | 353° |
| 2026-04-25 12:45 | 29.59776 | -81.47659 | 23591 ft | 418 kts | 353° |
| 2026-04-25 12:46 | 29.62688 | -81.47923 | 23820 ft | 419 kts | 354° |
| 2026-04-25 12:46 | 29.65591 | -81.48182 | 24065 ft | 420 kts | 354° |
| 2026-04-25 12:46 | 29.68509 | -81.48443 | 24302 ft | 421 kts | 354° |
| 2026-04-25 12:46 | 29.71428 | -81.48706 | 24508 ft | 423 kts | 354° |
| 2026-04-25 12:47 | 29.74369 | -81.48973 | 24606 ft | 427 kts | 354° |
| 2026-04-25 12:47 | 29.77343 | -81.49243 | 24733 ft | 432 kts | 354° |
| 2026-04-25 12:47 | 29.80339 | -81.49515 | 24856 ft | 435 kts | 354° |
| 2026-04-25 12:47 | 29.83382 | -81.49791 | 25050 ft | 437 kts | 354° |
| 2026-04-25 12:48 | 29.86422 | -81.50071 | 25227 ft | 439 kts | 354° |
| 2026-04-25 12:48 | 29.89407 | -81.50557 | 25393 ft | 440 kts | 347° |
| 2026-04-25 12:48 | 29.92375 | -81.51425 | 25586 ft | 441 kts | 343° |
| 2026-04-25 12:48 | 29.95321 | -81.52425 | 25817 ft | 442 kts | 342° |
| 2026-04-25 12:49 | 29.98257 | -81.53487 | 26031 ft | 443 kts | 342° |
| 2026-04-25 12:49 | 30.01215 | -81.54579 | 26243 ft | 444 kts | 342° |
| 2026-04-25 12:49 | 30.04139 | -81.55658 | 26455 ft | 445 kts | 342° |
| 2026-04-25 12:49 | 30.07082 | -81.56735 | 26677 ft | 446 kts | 342° |
| 2026-04-25 12:50 | 30.10055 | -81.57813 | 26904 ft | 448 kts | 342° |
| 2026-04-25 12:50 | 30.13037 | -81.58887 | 27122 ft | 449 kts | 342° |
| 2026-04-25 12:50 | 30.16020 | -81.59957 | 27330 ft | 450 kts | 343° |
| 2026-04-25 12:50 | 30.19023 | -81.61033 | 27553 ft | 452 kts | 343° |
| 2026-04-25 12:51 | 30.22027 | -81.62110 | 27776 ft | 453 kts | 343° |
| 2026-04-25 12:51 | 30.25030 | -81.63187 | 28009 ft | 454 kts | 343° |
| 2026-04-25 12:51 | 30.28069 | -81.64279 | 28241 ft | 455 kts | 343° |
| 2026-04-25 12:51 | 30.31093 | -81.65365 | 28466 ft | 457 kts | 343° |
| 2026-04-25 12:52 | 30.34131 | -81.66458 | 28684 ft | 458 kts | 343° |
| 2026-04-25 12:52 | 30.37169 | -81.67552 | 28891 ft | 459 kts | 343° |
| 2026-04-25 12:52 | 30.40218 | -81.68651 | 29111 ft | 460 kts | 343° |
| 2026-04-25 12:52 | 30.43274 | -81.69753 | 29470 ft | 459 kts | 343° |
| 2026-04-25 12:53 | 30.46326 | -81.70854 | 29843 ft | 458 kts | 343° |
| 2026-04-25 12:53 | 30.49362 | -81.71950 | 30169 ft | 457 kts | 343° |
| 2026-04-25 12:53 | 30.52411 | -81.73052 | 30349 ft | 460 kts | 343° |
| 2026-04-25 12:53 | 30.55479 | -81.74161 | 30450 ft | 464 kts | 343° |
| 2026-04-25 12:54 | 30.61749 | -81.75980 | 30718 ft | 469 kts | 353° |
| 2026-04-25 12:54 | 30.65030 | -81.76163 | 30901 ft | 470 kts | 2° |
| 2026-04-25 12:54 | 30.68279 | -81.75922 | 31096 ft | 471 kts | 5° |
| 2026-04-25 12:55 | 30.71555 | -81.75563 | 31266 ft | 473 kts | 6° |
| 2026-04-25 12:55 | 30.73733 | -81.75294 | 31406 ft | 474 kts | 6° |
| 2026-04-25 12:55 | 30.78136 | -81.74721 | 31639 ft | 476 kts | 6° |
| 2026-04-25 12:55 | 30.81404 | -81.74291 | 31814 ft | 478 kts | 6° |
| 2026-04-25 12:56 | 30.84733 | -81.73858 | 31994 ft | 479 kts | 6° |
| 2026-04-25 12:56 | 30.88046 | -81.73434 | 32257 ft | 478 kts | 6° |
| 2026-04-25 12:56 | 30.91339 | -81.73018 | 32510 ft | 478 kts | 6° |
| 2026-04-25 12:56 | 30.94637 | -81.72603 | 32740 ft | 477 kts | 6° |
| 2026-04-25 12:57 | 30.97949 | -81.72189 | 32984 ft | 477 kts | 6° |
| 2026-04-25 12:57 | 31.01252 | -81.71775 | 33271 ft | 476 kts | 6° |
| 2026-04-25 12:57 | 31.04508 | -81.71367 | 33553 ft | 475 kts | 6° |
| 2026-04-25 12:57 | 31.07816 | -81.70952 | 33786 ft | 474 kts | 6° |
| 2026-04-25 12:58 | 31.11098 | -81.70540 | 34016 ft | 474 kts | 6° |
| 2026-04-25 12:58 | 31.14378 | -81.70118 | 34224 ft | 474 kts | 7° |
| 2026-04-25 12:58 | 31.17601 | -81.69400 | 34435 ft | 473 kts | 14° |
| 2026-04-25 12:58 | 31.20767 | -81.68354 | 34674 ft | 473 kts | 15° |
| 2026-04-25 12:59 | 31.23896 | -81.67254 | 34902 ft | 472 kts | 16° |
| 2026-04-25 12:59 | 31.27065 | -81.66104 | 35097 ft | 472 kts | 16° |
| 2026-04-25 12:59 | 31.30195 | -81.64953 | 35286 ft | 472 kts | 16° |
| 2026-04-25 12:59 | 31.33269 | -81.63818 | 35598 ft | 469 kts | 16° |
| 2026-04-25 13:00 | 31.36408 | -81.62660 | 35853 ft | 467 kts | 15° |
| 2026-04-25 13:00 | 31.37434 | -81.62282 | 35934 ft | 467 kts | 15° |
| 2026-04-25 13:00 | 31.42560 | -81.60399 | 36263 ft | 466 kts | 15° |
| 2026-04-25 13:00 | 31.45695 | -81.59249 | 36475 ft | 466 kts | 15° |
| 2026-04-25 13:01 | 31.48757 | -81.58126 | 36684 ft | 465 kts | 15° |
| 2026-04-25 13:01 | 31.51884 | -81.56979 | 36875 ft | 465 kts | 15° |
| 2026-04-25 13:01 | 31.58079 | -81.54705 | 36965 ft | 470 kts | 15° |
| 2026-04-25 13:02 | 31.64280 | -81.52424 | 36955 ft | 470 kts | 15° |
| 2026-04-25 13:02 | 31.70562 | -81.50109 | 36950 ft | 469 kts | 15° |
| 2026-04-25 13:03 | 31.76766 | -81.47820 | 36946 ft | 469 kts | 15° |
| 2026-04-25 13:03 | 31.82997 | -81.45518 | 36945 ft | 469 kts | 15° |
| 2026-04-25 13:04 | 31.89237 | -81.43210 | 36945 ft | 470 kts | 15° |
| 2026-04-25 13:04 | 31.95467 | -81.40901 | 36945 ft | 470 kts | 15° |
| 2026-04-25 13:05 | 32.01721 | -81.38581 | 36952 ft | 470 kts | 15° |
| 2026-04-25 13:05 | 32.07956 | -81.36264 | 36954 ft | 471 kts | 15° |
| 2026-04-25 13:06 | 32.14195 | -81.33943 | 36952 ft | 471 kts | 15° |
| 2026-04-25 13:06 | 32.20448 | -81.31613 | 36952 ft | 472 kts | 15° |
| 2026-04-25 13:07 | 32.26691 | -81.29282 | 36951 ft | 472 kts | 15° |
| 2026-04-25 13:07 | 32.32960 | -81.26940 | 36951 ft | 471 kts | 15° |
| 2026-04-25 13:08 | 32.39217 | -81.24598 | 36944 ft | 471 kts | 15° |
| 2026-04-25 13:08 | 32.45444 | -81.22191 | 36942 ft | 472 kts | 19° |
| 2026-04-25 13:09 | 32.51169 | -81.18387 | 36948 ft | 476 kts | 34° |
| 2026-04-25 13:09 | 32.56391 | -81.13508 | 36940 ft | 478 kts | 37° |
| 2026-04-25 13:10 | 32.61502 | -81.08505 | 36941 ft | 480 kts | 37° |
| 2026-04-25 13:10 | 32.66671 | -81.03432 | 36941 ft | 481 kts | 37° |
| 2026-04-25 13:11 | 32.71799 | -80.98422 | 36939 ft | 481 kts | 37° |
| 2026-04-25 13:11 | 32.77005 | -80.93342 | 36943 ft | 481 kts | 37° |
| 2026-04-25 13:12 | 32.82159 | -80.88308 | 36948 ft | 480 kts | 37° |
| 2026-04-25 13:12 | 32.85604 | -80.84938 | 36950 ft | 480 kts | 37° |
| 2026-04-25 13:13 | 32.92474 | -80.78206 | 36951 ft | 480 kts | 37° |
| 2026-04-25 13:13 | 32.97637 | -80.73136 | 36952 ft | 480 kts | 37° |
| 2026-04-25 13:14 | 33.02797 | -80.68062 | 36953 ft | 480 kts | 37° |
| 2026-04-25 13:14 | 33.07936 | -80.63000 | 36941 ft | 480 kts | 37° |
| 2026-04-25 13:15 | 33.13097 | -80.57909 | 36935 ft | 480 kts | 37° |
| 2026-04-25 13:15 | 33.18242 | -80.52825 | 36939 ft | 481 kts | 37° |
| 2026-04-25 13:16 | 33.23385 | -80.47737 | 36931 ft | 479 kts | 37° |
| 2026-04-25 13:16 | 33.28513 | -80.42656 | 36937 ft | 479 kts | 38° |
| 2026-04-25 13:17 | 33.33648 | -80.37561 | 36931 ft | 479 kts | 38° |
| 2026-04-25 13:17 | 33.38771 | -80.32467 | 36933 ft | 480 kts | 38° |
| 2026-04-25 13:18 | 33.43912 | -80.27348 | 36931 ft | 481 kts | 38° |
| 2026-04-25 13:18 | 33.48185 | -80.23086 | 36932 ft | 481 kts | 38° |
| 2026-04-25 13:19 | 33.53320 | -80.17957 | 36936 ft | 481 kts | 38° |
| 2026-04-25 13:19 | 33.57629 | -80.13647 | 36935 ft | 480 kts | 38° |
| 2026-04-25 13:20 | 33.63631 | -80.07751 | 36934 ft | 480 kts | 33° |
| 2026-04-25 13:20 | 33.69391 | -80.03761 | 36931 ft | 478 kts | 26° |
| 2026-04-25 13:21 | 33.75333 | -80.00108 | 36924 ft | 478 kts | 25° |
| 2026-04-25 13:21 | 33.81259 | -79.96525 | 36927 ft | 479 kts | 25° |
| 2026-04-25 13:22 | 33.87215 | -79.92911 | 36926 ft | 480 kts | 25° |
| 2026-04-25 13:23 | 33.96181 | -79.87434 | 36921 ft | 481 kts | 25° |
| 2026-04-25 13:23 | 34.02146 | -79.83782 | 36925 ft | 481 kts | 25° |
| 2026-04-25 13:24 | 34.08121 | -79.80117 | 36927 ft | 481 kts | 25° |
| 2026-04-25 13:24 | 34.14091 | -79.76449 | 36926 ft | 482 kts | 25° |
| 2026-04-25 13:25 | 34.20076 | -79.72774 | 36926 ft | 482 kts | 25° |
| 2026-04-25 13:25 | 34.26049 | -79.69093 | 36925 ft | 482 kts | 25° |
| 2026-04-25 13:26 | 34.32027 | -79.65399 | 36924 ft | 482 kts | 25° |
| 2026-04-25 13:26 | 34.38014 | -79.61699 | 36922 ft | 484 kts | 25° |
| 2026-04-25 13:27 | 34.44023 | -79.57989 | 36919 ft | 485 kts | 25° |
| 2026-04-25 13:27 | 34.50023 | -79.54263 | 36919 ft | 485 kts | 25° |
| 2026-04-25 13:28 | 34.56027 | -79.50529 | 36919 ft | 485 kts | 25° |
| 2026-04-25 13:28 | 34.61926 | -79.46645 | 36920 ft | 487 kts | 27° |
| 2026-04-25 13:29 | 34.67863 | -79.42572 | 36928 ft | 487 kts | 27° |
| 2026-04-25 13:29 | 34.73710 | -79.38588 | 36924 ft | 486 kts | 27° |
| 2026-04-25 13:30 | 34.82573 | -79.32571 | 36925 ft | 486 kts | 26° |
| 2026-04-25 13:31 | 34.88602 | -79.28480 | 36923 ft | 487 kts | 26° |
| 2026-04-25 13:31 | 34.97535 | -79.22407 | 36916 ft | 487 kts | 26° |
| 2026-04-25 13:32 | 35.03457 | -79.18372 | 36904 ft | 488 kts | 26° |
| 2026-04-25 13:32 | 35.09391 | -79.14323 | 36898 ft | 489 kts | 26° |
| 2026-04-25 13:33 | 35.15321 | -79.10269 | 36898 ft | 489 kts | 26° |
| 2026-04-25 13:33 | 35.21264 | -79.06200 | 36907 ft | 489 kts | 26° |
| 2026-04-25 13:34 | 35.27227 | -79.02109 | 36905 ft | 488 kts | 26° |
| 2026-04-25 13:34 | 35.33131 | -78.98052 | 36905 ft | 489 kts | 26° |
| 2026-04-25 13:35 | 35.39059 | -78.93973 | 36900 ft | 489 kts | 26° |
| 2026-04-25 13:35 | 35.44985 | -78.89893 | 36906 ft | 489 kts | 26° |
| 2026-04-25 13:36 | 35.50935 | -78.85787 | 36903 ft | 489 kts | 26° |
| 2026-04-25 13:36 | 35.56831 | -78.81702 | 36907 ft | 489 kts | 26° |
| 2026-04-25 13:37 | 35.62754 | -78.77599 | 36901 ft | 489 kts | 26° |
| 2026-04-25 13:37 | 35.68682 | -78.73487 | 36900 ft | 490 kts | 26° |
| 2026-04-25 13:38 | 35.74575 | -78.69383 | 36897 ft | 490 kts | 26° |
| 2026-04-25 13:38 | 35.80540 | -78.65225 | 36893 ft | 491 kts | 26° |
| 2026-04-25 13:39 | 35.86492 | -78.61071 | 36900 ft | 490 kts | 26° |
| 2026-04-25 13:39 | 35.92415 | -78.56931 | 36901 ft | 490 kts | 26° |
| 2026-04-25 13:40 | 35.98347 | -78.52776 | 36910 ft | 490 kts | 26° |
| 2026-04-25 13:40 | 36.04286 | -78.48611 | 36912 ft | 491 kts | 26° |
| 2026-04-25 13:41 | 36.10274 | -78.44403 | 36914 ft | 492 kts | 26° |
| 2026-04-25 13:41 | 36.16184 | -78.40242 | 36909 ft | 492 kts | 26° |
| 2026-04-25 13:42 | 36.22133 | -78.36047 | 36891 ft | 492 kts | 26° |
| 2026-04-25 13:42 | 36.28081 | -78.31845 | 36887 ft | 493 kts | 26° |
| 2026-04-25 13:43 | 36.34043 | -78.27626 | 36889 ft | 493 kts | 26° |
| 2026-04-25 13:43 | 36.40249 | -78.24170 | 36890 ft | 486 kts | 14° |
| 2026-04-25 13:44 | 36.46682 | -78.21708 | 36871 ft | 486 kts | 12° |
| 2026-04-25 13:44 | 36.53195 | -78.19370 | 36883 ft | 485 kts | 12° |
| 2026-04-25 13:45 | 36.59672 | -78.17050 | 36941 ft | 485 kts | 12° |
| 2026-04-25 13:45 | 36.66159 | -78.14705 | 36948 ft | 486 kts | 12° |
| 2026-04-25 13:46 | 36.72668 | -78.12338 | 36944 ft | 487 kts | 12° |
| 2026-04-25 13:46 | 36.79168 | -78.09969 | 36934 ft | 487 kts | 12° |
| 2026-04-25 13:47 | 36.85671 | -78.07595 | 36921 ft | 487 kts | 12° |
| 2026-04-25 13:47 | 36.92159 | -78.05223 | 36886 ft | 488 kts | 11° |
| 2026-04-25 13:48 | 36.98699 | -78.02829 | 36887 ft | 489 kts | 11° |
| 2026-04-25 13:48 | 37.05169 | -78.00455 | 36889 ft | 489 kts | 11° |
| 2026-04-25 13:49 | 37.11775 | -77.98026 | 36896 ft | 489 kts | 11° |
| 2026-04-25 13:49 | 37.17192 | -77.96030 | 36887 ft | 491 kts | 11° |
| 2026-04-25 13:50 | 37.24849 | -77.93206 | 36884 ft | 490 kts | 11° |
| 2026-04-25 13:50 | 37.31349 | -77.90804 | 36875 ft | 489 kts | 11° |
| 2026-04-25 13:51 | 37.37913 | -77.88374 | 36881 ft | 489 kts | 11° |
| 2026-04-25 13:51 | 37.44444 | -77.85952 | 36881 ft | 490 kts | 11° |
| 2026-04-25 13:52 | 37.50942 | -77.83534 | 36890 ft | 490 kts | 11° |
| 2026-04-25 13:52 | 37.57368 | -77.80461 | 36914 ft | 495 kts | 16° |
| 2026-04-25 13:53 | 37.63730 | -77.77151 | 36902 ft | 496 kts | 17° |
| 2026-04-25 13:53 | 37.70117 | -77.73778 | 36913 ft | 497 kts | 17° |
| 2026-04-25 13:54 | 37.76534 | -77.70386 | 36918 ft | 497 kts | 17° |
| 2026-04-25 13:54 | 37.82860 | -77.67044 | 36919 ft | 497 kts | 17° |
| 2026-04-25 13:55 | 37.89232 | -77.63676 | 36924 ft | 497 kts | 17° |
| 2026-04-25 13:55 | 37.95611 | -77.60297 | 36918 ft | 497 kts | 17° |
| 2026-04-25 13:56 | 38.01962 | -77.56925 | 36921 ft | 496 kts | 17° |
| 2026-04-25 13:56 | 38.08336 | -77.53534 | 36926 ft | 495 kts | 17° |
| 2026-04-25 13:57 | 38.14690 | -77.50149 | 36930 ft | 495 kts | 17° |
| 2026-04-25 13:57 | 38.21031 | -77.46765 | 36932 ft | 495 kts | 17° |
| 2026-04-25 13:58 | 38.27376 | -77.43372 | 36935 ft | 495 kts | 17° |
| 2026-04-25 13:58 | 38.32669 | -77.40537 | 36933 ft | 495 kts | 17° |
| 2026-04-25 13:59 | 38.38904 | -77.36803 | 36945 ft | 503 kts | 26° |
| 2026-04-25 13:59 | 38.44297 | -77.30966 | 36976 ft | 516 kts | 41° |
| 2026-04-25 14:00 | 38.49122 | -77.24155 | 36957 ft | 518 kts | 44° |
| 2026-04-25 14:00 | 38.53854 | -77.17233 | 36959 ft | 517 kts | 44° |
| 2026-04-25 14:01 | 38.58583 | -77.10331 | 36951 ft | 516 kts | 43° |
| 2026-04-25 14:01 | 38.63319 | -77.03452 | 36958 ft | 516 kts | 43° |
| 2026-04-25 14:02 | 38.68074 | -76.96547 | 36941 ft | 516 kts | 43° |
| 2026-04-25 14:02 | 38.72806 | -76.89661 | 36957 ft | 516 kts | 43° |
| 2026-04-25 14:03 | 38.77546 | -76.82748 | 36960 ft | 515 kts | 43° |
| 2026-04-25 14:03 | 38.82247 | -76.75880 | 36961 ft | 514 kts | 43° |
| 2026-04-25 14:04 | 38.86964 | -76.68960 | 36959 ft | 514 kts | 43° |
| 2026-04-25 14:04 | 38.91647 | -76.62078 | 36989 ft | 514 kts | 43° |
| 2026-04-25 14:05 | 38.96363 | -76.55133 | 36987 ft | 514 kts | 43° |
| 2026-04-25 14:05 | 39.01056 | -76.48210 | 36975 ft | 514 kts | 43° |
| 2026-04-25 14:06 | 39.05740 | -76.41282 | 36976 ft | 512 kts | 43° |
| 2026-04-25 14:06 | 39.10411 | -76.34362 | 36994 ft | 512 kts | 43° |
| 2026-04-25 14:07 | 39.15078 | -76.27432 | 36999 ft | 512 kts | 43° |
| 2026-04-25 14:07 | 39.19746 | -76.20484 | 37000 ft | 512 kts | 43° |
| 2026-04-25 14:08 | 39.24399 | -76.13542 | 37003 ft | 512 kts | 43° |
| 2026-04-25 14:08 | 39.29054 | -76.06601 | 36997 ft | 510 kts | 43° |
| 2026-04-25 14:09 | 39.33674 | -75.99673 | 36993 ft | 509 kts | 43° |
| 2026-04-25 14:09 | 39.38290 | -75.92734 | 36998 ft | 509 kts | 43° |
| 2026-04-25 14:10 | 39.43343 | -75.85127 | 37011 ft | 509 kts | 43° |
| 2026-04-25 14:10 | 39.47514 | -75.78836 | 37021 ft | 509 kts | 43° |
| 2026-04-25 14:11 | 39.52121 | -75.71872 | 37032 ft | 508 kts | 43° |
| 2026-04-25 14:11 | 39.56704 | -75.64928 | 37042 ft | 507 kts | 43° |
| 2026-04-25 14:12 | 39.61291 | -75.57965 | 37048 ft | 507 kts | 43° |
| 2026-04-25 14:12 | 39.65868 | -75.51002 | 37050 ft | 507 kts | 43° |
| 2026-04-25 14:13 | 39.70187 | -75.43809 | 37044 ft | 511 kts | 48° |
| 2026-04-25 14:13 | 39.74295 | -75.36226 | 37059 ft | 511 kts | 49° |
| 2026-04-25 14:14 | 39.78403 | -75.28701 | 37047 ft | 510 kts | 48° |
| 2026-04-25 14:14 | 39.82558 | -75.21226 | 37067 ft | 510 kts | 47° |
| 2026-04-25 14:15 | 39.86719 | -75.13779 | 37069 ft | 510 kts | 47° |
| 2026-04-25 14:15 | 39.90909 | -75.06264 | 37053 ft | 510 kts | 47° |
| 2026-04-25 14:16 | 39.95036 | -74.98838 | 37069 ft | 508 kts | 47° |
| 2026-04-25 14:16 | 39.99159 | -74.91316 | 37062 ft | 510 kts | 49° |
| 2026-04-25 14:17 | 40.03071 | -74.83603 | 37068 ft | 511 kts | 51° |
| 2026-04-25 14:17 | 40.06948 | -74.75836 | 37068 ft | 511 kts | 50° |
| 2026-04-25 14:18 | 40.10829 | -74.68129 | 37082 ft | 510 kts | 50° |
| 2026-04-25 14:18 | 40.14766 | -74.60352 | 37068 ft | 510 kts | 50° |
| 2026-04-25 14:19 | 40.18703 | -74.52636 | 37069 ft | 507 kts | 47° |
| 2026-04-25 14:19 | 40.23454 | -74.46147 | 37074 ft | 492 kts | 33° |
| 2026-04-25 14:20 | 40.28723 | -74.40428 | 37103 ft | 492 kts | 32° |
| 2026-04-25 14:20 | 40.34028 | -74.34764 | 37104 ft | 491 kts | 32° |
| 2026-04-25 14:21 | 40.39318 | -74.29108 | 37103 ft | 489 kts | 32° |
| 2026-04-25 14:21 | 40.44579 | -74.23463 | 37109 ft | 489 kts | 32° |
| 2026-04-25 14:22 | 40.49809 | -74.17833 | 37113 ft | 488 kts | 32° |
| 2026-04-25 14:22 | 40.55049 | -74.12180 | 37113 ft | 488 kts | 32° |
| 2026-04-25 14:23 | 40.60284 | -74.06536 | 37112 ft | 488 kts | 32° |
| 2026-04-25 14:23 | 40.65517 | -74.00859 | 37172 ft | 488 kts | 32° |
| 2026-04-25 14:24 | 40.70705 | -73.95217 | 37137 ft | 485 kts | 32° |
| 2026-04-25 14:24 | 40.75933 | -73.89525 | 37111 ft | 484 kts | 32° |
| 2026-04-25 14:25 | 40.81122 | -73.83870 | 37107 ft | 484 kts | 32° |
| 2026-04-25 14:25 | 40.86506 | -73.78652 | 37115 ft | 473 kts | 22° |
| 2026-04-25 14:26 | 40.92434 | -73.75289 | 37109 ft | 464 kts | 14° |
| 2026-04-25 14:26 | 40.97498 | -73.72845 | 37109 ft | 464 kts | 13° |
| 2026-04-25 14:27 | 41.04481 | -73.69546 | 37115 ft | 464 kts | 13° |
| 2026-04-25 14:27 | 41.10626 | -73.66619 | 37109 ft | 464 kts | 13° |
| 2026-04-25 14:28 | 41.16642 | -73.63734 | 37110 ft | 464 kts | 13° |
| 2026-04-25 14:28 | 41.22729 | -73.60803 | 37146 ft | 462 kts | 13° |
| 2026-04-25 14:29 | 41.28800 | -73.58242 | 37127 ft | 454 kts | 5° |
| 2026-04-25 14:29 | 41.35046 | -73.57159 | 37127 ft | 449 kts | 0° |
| 2026-04-25 14:30 | 41.41229 | -73.56305 | 37128 ft | 449 kts | 0° |
| 2026-04-25 14:30 | 41.50560 | -73.55061 | 37106 ft | 448 kts | 0° |
| 2026-04-25 14:31 | 41.56769 | -73.54224 | 37105 ft | 448 kts | 0° |
| 2026-04-25 14:31 | 41.63005 | -73.53377 | 37105 ft | 449 kts | 0° |
| 2026-04-25 14:32 | 41.69226 | -73.52530 | 37097 ft | 449 kts | 0° |
| 2026-04-25 14:32 | 41.75441 | -73.51679 | 37097 ft | 449 kts | 0° |
| 2026-04-25 14:33 | 41.81594 | -73.50837 | 37109 ft | 449 kts | 0° |
| 2026-04-25 14:33 | 41.87859 | -73.49978 | 37102 ft | 448 kts | 0° |
| 2026-04-25 14:34 | 41.94016 | -73.49134 | 37097 ft | 448 kts | 0° |
| 2026-04-25 14:34 | 42.00219 | -73.48279 | 37082 ft | 448 kts | 0° |
| 2026-04-25 14:35 | 42.06423 | -73.47424 | 37086 ft | 448 kts | 0° |
| 2026-04-25 14:35 | 42.12668 | -73.46563 | 37074 ft | 448 kts | 0° |
| 2026-04-25 14:36 | 42.18819 | -73.45712 | 37073 ft | 448 kts | 0° |
| 2026-04-25 14:36 | 42.25024 | -73.44851 | 37079 ft | 448 kts | 0° |
| 2026-04-25 14:37 | 42.31174 | -73.43996 | 37080 ft | 448 kts | 0° |
| 2026-04-25 14:37 | 42.37431 | -73.43125 | 37081 ft | 448 kts | 0° |
| 2026-04-25 14:38 | 42.43627 | -73.42262 | 37091 ft | 448 kts | 0° |
| 2026-04-25 14:38 | 42.49811 | -73.41396 | 37080 ft | 448 kts | 0° |
| 2026-04-25 14:39 | 42.56018 | -73.40526 | 37080 ft | 448 kts | 0° |
| 2026-04-25 14:39 | 42.62239 | -73.39653 | 37109 ft | 448 kts | 0° |
| 2026-04-25 14:40 | 42.68430 | -73.38782 | 37098 ft | 448 kts | 360° |
| 2026-04-25 14:40 | 42.74609 | -73.37914 | 37100 ft | 447 kts | 360° |
| 2026-04-25 14:41 | 42.80827 | -73.37037 | 37118 ft | 448 kts | 0° |
| 2026-04-25 14:41 | 42.87009 | -73.36162 | 37095 ft | 447 kts | 360° |
| 2026-04-25 14:42 | 42.91148 | -73.35576 | 37091 ft | 448 kts | 360° |
| 2026-04-25 14:42 | 42.98339 | -73.34556 | 37091 ft | 448 kts | 360° |
| 2026-04-25 14:43 | 43.04542 | -73.33773 | 37092 ft | 446 kts | 358° |
| 2026-04-25 14:43 | 43.10749 | -73.33171 | 37092 ft | 446 kts | 358° |
| 2026-04-25 14:44 | 43.16955 | -73.32569 | 37101 ft | 446 kts | 358° |
| 2026-04-25 14:44 | 43.23084 | -73.31942 | 37106 ft | 446 kts | 358° |
| 2026-04-25 14:45 | 43.29327 | -73.31289 | 37106 ft | 447 kts | 358° |
| 2026-04-25 14:45 | 43.35523 | -73.30638 | 37105 ft | 447 kts | 358° |
| 2026-04-25 14:46 | 43.41731 | -73.29987 | 37125 ft | 447 kts | 358° |
| 2026-04-25 14:46 | 43.48122 | -73.29313 | 37103 ft | 443 kts | 358° |
| 2026-04-25 14:47 | 43.53005 | -73.28798 | 37104 ft | 442 kts | 358° |
| 2026-04-25 14:47 | 43.60171 | -73.28044 | 37105 ft | 442 kts | 358° |
| 2026-04-25 14:48 | 43.66298 | -73.27398 | 37113 ft | 442 kts | 358° |
| 2026-04-25 14:48 | 43.72367 | -73.26755 | 37104 ft | 442 kts | 358° |
| 2026-04-25 14:49 | 43.78536 | -73.26100 | 37114 ft | 442 kts | 358° |
| 2026-04-25 14:49 | 43.84714 | -73.25442 | 37079 ft | 442 kts | 358° |
| 2026-04-25 14:50 | 43.90872 | -73.24788 | 37106 ft | 446 kts | 358° |
| 2026-04-25 14:50 | 43.97004 | -73.23550 | 37117 ft | 457 kts | 9° |
| 2026-04-25 14:51 | 44.02919 | -73.19840 | 37110 ft | 472 kts | 26° |
| 2026-04-25 14:51 | 44.07808 | -73.13509 | 37108 ft | 493 kts | 45° |
| 2026-04-25 14:52 | 44.11799 | -73.05772 | 37149 ft | 497 kts | 47° |
| 2026-04-25 14:52 | 44.15025 | -72.99131 | 37119 ft | 494 kts | 48° |
| 2026-04-25 14:53 | 44.19505 | -72.89920 | 37142 ft | 493 kts | 47° |
| 2026-04-25 14:53 | 44.23371 | -72.82046 | 37152 ft | 493 kts | 47° |
| 2026-04-25 14:54 | 44.27239 | -72.74181 | 37166 ft | 493 kts | 47° |
| 2026-04-25 14:54 | 44.31110 | -72.66284 | 37147 ft | 492 kts | 47° |
| 2026-04-25 14:55 | 44.34960 | -72.58409 | 37143 ft | 491 kts | 47° |
| 2026-04-25 14:55 | 44.38803 | -72.50525 | 37146 ft | 491 kts | 47° |
| 2026-04-25 14:56 | 44.42631 | -72.42647 | 37214 ft | 491 kts | 47° |
| 2026-04-25 14:56 | 44.44565 | -72.38658 | 37439 ft | 490 kts | 47° |
| 2026-04-25 14:56 | 44.46469 | -72.34723 | 37673 ft | 489 kts | 47° |
| 2026-04-25 14:57 | 44.48376 | -72.30779 | 37924 ft | 488 kts | 47° |
| 2026-04-25 14:57 | 44.50275 | -72.26847 | 38135 ft | 487 kts | 47° |
| 2026-04-25 14:57 | 44.52173 | -72.22913 | 38336 ft | 487 kts | 47° |
| 2026-04-25 14:57 | 44.54037 | -72.19045 | 38545 ft | 486 kts | 47° |
| 2026-04-25 14:58 | 44.55964 | -72.15039 | 38775 ft | 486 kts | 47° |
| 2026-04-25 14:58 | 44.57850 | -72.11115 | 38898 ft | 486 kts | 47° |
| 2026-04-25 14:58 | 44.59715 | -72.07228 | 39028 ft | 486 kts | 48° |
| 2026-04-25 14:58 | 44.61602 | -72.03290 | 39111 ft | 486 kts | 48° |
| 2026-04-25 14:59 | 44.65402 | -71.95348 | 39136 ft | 490 kts | 48° |
| 2026-04-25 14:59 | 44.69206 | -71.87368 | 39135 ft | 490 kts | 49° |
| 2026-04-25 15:00 | 44.72960 | -71.79467 | 39146 ft | 489 kts | 49° |
| 2026-04-25 15:00 | 44.76765 | -71.71441 | 39146 ft | 489 kts | 49° |
| 2026-04-25 15:01 | 44.80531 | -71.63478 | 39149 ft | 490 kts | 49° |
| 2026-04-25 15:01 | 44.84282 | -71.55524 | 39149 ft | 490 kts | 49° |
| 2026-04-25 15:02 | 44.88054 | -71.47501 | 39154 ft | 490 kts | 50° |
| 2026-04-25 15:02 | 44.91815 | -71.39481 | 39147 ft | 490 kts | 50° |
| 2026-04-25 15:03 | 44.95581 | -71.31426 | 39152 ft | 489 kts | 50° |
| 2026-04-25 15:03 | 44.99322 | -71.23401 | 39151 ft | 489 kts | 50° |
| 2026-04-25 15:04 | 45.03048 | -71.15389 | 39141 ft | 487 kts | 51° |
| 2026-04-25 15:04 | 45.06761 | -71.07380 | 39144 ft | 486 kts | 51° |
| 2026-04-25 15:05 | 45.10571 | -70.99500 | 39147 ft | 481 kts | 44° |
| 2026-04-25 15:06 | 45.17239 | -70.88971 | 39146 ft | 478 kts | 41° |
| 2026-04-25 15:06 | 45.21733 | -70.82133 | 39144 ft | 478 kts | 41° |
| 2026-04-25 15:07 | 45.26245 | -70.75249 | 39143 ft | 478 kts | 41° |
| 2026-04-25 15:07 | 45.30762 | -70.68318 | 39145 ft | 478 kts | 41° |
| 2026-04-25 15:08 | 45.35258 | -70.61390 | 39144 ft | 477 kts | 41° |
| 2026-04-25 15:08 | 45.39778 | -70.54407 | 39139 ft | 478 kts | 41° |
| 2026-04-25 15:09 | 45.44261 | -70.47466 | 39141 ft | 478 kts | 42° |
| 2026-04-25 15:09 | 45.50996 | -70.37003 | 39138 ft | 478 kts | 42° |
| 2026-04-25 15:10 | 45.55490 | -70.29999 | 39137 ft | 477 kts | 42° |
| 2026-04-25 15:11 | 45.62157 | -70.19575 | 39137 ft | 477 kts | 42° |
| 2026-04-25 15:11 | 45.66654 | -70.12524 | 39135 ft | 478 kts | 43° |
| 2026-04-25 15:12 | 45.73385 | -70.01934 | 39132 ft | 479 kts | 43° |
| 2026-04-25 15:12 | 45.76333 | -69.97283 | 39134 ft | 479 kts | 43° |
| 2026-04-25 15:13 | 45.84564 | -69.84256 | 39127 ft | 481 kts | 43° |
| 2026-04-25 15:14 | 45.89047 | -69.77133 | 39126 ft | 481 kts | 44° |
| 2026-04-25 15:14 | 45.93535 | -69.69983 | 39121 ft | 481 kts | 44° |
| 2026-04-25 15:15 | 45.98006 | -69.62845 | 39125 ft | 481 kts | 44° |
| 2026-04-25 15:15 | 46.02449 | -69.55730 | 39124 ft | 480 kts | 44° |
| 2026-04-25 15:16 | 46.06943 | -69.48515 | 39123 ft | 480 kts | 44° |
| 2026-04-25 15:16 | 46.13620 | -69.37761 | 39135 ft | 480 kts | 44° |
| 2026-04-25 15:17 | 46.20299 | -69.26961 | 39116 ft | 481 kts | 44° |
| 2026-04-25 15:18 | 46.24740 | -69.19756 | 39134 ft | 481 kts | 44° |
| 2026-04-25 15:18 | 46.31406 | -69.08905 | 39145 ft | 482 kts | 45° |
| 2026-04-25 15:19 | 46.34349 | -69.04103 | 39131 ft | 484 kts | 45° |
| 2026-04-25 15:19 | 46.40333 | -68.94309 | 39123 ft | 484 kts | 45° |
| 2026-04-25 15:20 | 46.44790 | -68.86991 | 39117 ft | 485 kts | 45° |
| 2026-04-25 15:20 | 46.49252 | -68.79645 | 39119 ft | 486 kts | 45° |
| 2026-04-25 15:21 | 46.53692 | -68.72316 | 39117 ft | 487 kts | 45° |
| 2026-04-25 15:21 | 46.58131 | -68.64968 | 39117 ft | 487 kts | 45° |
| 2026-04-25 15:22 | 46.62610 | -68.57533 | 39125 ft | 487 kts | 46° |
| 2026-04-25 15:22 | 46.67055 | -68.50134 | 39115 ft | 484 kts | 46° |
| 2026-04-25 15:23 | 46.71453 | -68.42796 | 39104 ft | 483 kts | 46° |
| 2026-04-25 15:23 | 46.75891 | -68.35371 | 39122 ft | 483 kts | 46° |
| 2026-04-25 15:24 | 46.80305 | -68.27964 | 39102 ft | 482 kts | 46° |
| 2026-04-25 15:24 | 46.83230 | -68.23046 | 39094 ft | 482 kts | 46° |
| 2026-04-25 15:25 | 46.89071 | -68.13197 | 39082 ft | 482 kts | 46° |
| 2026-04-25 15:25 | 46.93459 | -68.05774 | 39082 ft | 482 kts | 46° |
| 2026-04-25 15:26 | 46.97830 | -67.98359 | 39085 ft | 479 kts | 46° |
| 2026-04-25 15:26 | 47.02127 | -67.91049 | 39087 ft | 478 kts | 46° |
| 2026-04-25 15:27 | 47.06493 | -67.83605 | 39090 ft | 478 kts | 47° |
| 2026-04-25 15:28 | 47.12986 | -67.72494 | 39100 ft | 477 kts | 47° |
| 2026-04-25 15:28 | 47.16562 | -67.66355 | 39093 ft | 477 kts | 47° |
| 2026-04-25 15:29 | 47.21618 | -67.57652 | 39089 ft | 477 kts | 47° |
| 2026-04-25 15:29 | 47.25198 | -67.51472 | 39097 ft | 477 kts | 47° |
| 2026-04-25 15:30 | 47.29490 | -67.44046 | 39085 ft | 478 kts | 47° |
| 2026-04-25 15:30 | 47.33818 | -67.36537 | 39100 ft | 479 kts | 47° |
| 2026-04-25 15:31 | 47.38129 | -67.29034 | 39093 ft | 479 kts | 47° |
| 2026-04-25 15:31 | 47.42309 | -67.21375 | 39078 ft | 480 kts | 49° |
| 2026-04-25 15:32 | 47.46417 | -67.13596 | 39083 ft | 480 kts | 50° |
| 2026-04-25 15:32 | 47.50539 | -67.05820 | 39085 ft | 480 kts | 49° |
| 2026-04-25 15:33 | 47.56732 | -66.94189 | 39084 ft | 480 kts | 49° |
| 2026-04-25 15:33 | 47.60855 | -66.86434 | 39085 ft | 480 kts | 49° |
| 2026-04-25 15:34 | 47.64972 | -66.78663 | 39082 ft | 480 kts | 49° |
| 2026-04-25 15:34 | 47.68411 | -66.72154 | 39083 ft | 480 kts | 50° |
| 2026-04-25 15:35 | 47.75273 | -66.59119 | 39075 ft | 480 kts | 50° |
| 2026-04-25 15:36 | 47.81442 | -66.47349 | 39077 ft | 482 kts | 50° |
| 2026-04-25 15:36 | 47.85544 | -66.39493 | 39209 ft | 481 kts | 50° |
| 2026-04-25 15:37 | 47.87596 | -66.35552 | 39371 ft | 481 kts | 50° |
| 2026-04-25 15:37 | 47.89645 | -66.31615 | 39492 ft | 480 kts | 50° |
| 2026-04-25 15:37 | 47.91691 | -66.27675 | 39620 ft | 480 kts | 50° |
| 2026-04-25 15:37 | 47.93730 | -66.23745 | 39707 ft | 481 kts | 50° |
| 2026-04-25 15:38 | 47.97819 | -66.15847 | 39879 ft | 481 kts | 50° |
| 2026-04-25 15:38 | 48.01909 | -66.07924 | 40043 ft | 482 kts | 50° |
| 2026-04-25 15:39 | 48.06008 | -65.99959 | 40044 ft | 484 kts | 50° |
| 2026-04-25 15:39 | 48.10102 | -65.91979 | 40049 ft | 483 kts | 50° |
| 2026-04-25 15:40 | 48.13498 | -65.85343 | 40045 ft | 482 kts | 50° |
| 2026-04-25 15:40 | 48.18251 | -65.76027 | 40046 ft | 482 kts | 51° |
| 2026-04-25 15:41 | 48.22317 | -65.68034 | 40045 ft | 482 kts | 51° |
| 2026-04-25 15:41 | 48.26340 | -65.60102 | 40042 ft | 481 kts | 50° |
| 2026-04-25 15:42 | 48.30408 | -65.52055 | 40040 ft | 479 kts | 51° |
| 2026-04-25 15:42 | 48.34401 | -65.44134 | 40042 ft | 479 kts | 51° |
| 2026-04-25 15:43 | 48.38444 | -65.36090 | 40045 ft | 479 kts | 51° |
| 2026-04-25 15:43 | 48.42425 | -65.28147 | 40034 ft | 479 kts | 51° |
| 2026-04-25 15:44 | 48.46432 | -65.20128 | 40037 ft | 479 kts | 51° |
| 2026-04-25 15:44 | 48.50460 | -65.12043 | 40038 ft | 479 kts | 51° |
| 2026-04-25 15:45 | 48.54427 | -65.04056 | 40036 ft | 479 kts | 51° |
| 2026-04-25 15:45 | 48.57760 | -64.97327 | 40043 ft | 479 kts | 51° |
| 2026-04-25 15:46 | 48.62396 | -64.87939 | 40030 ft | 478 kts | 51° |
| 2026-04-25 15:46 | 48.66359 | -64.79890 | 40040 ft | 478 kts | 51° |
| 2026-04-25 15:47 | 48.70319 | -64.71822 | 40040 ft | 478 kts | 51° |
| 2026-04-25 15:47 | 48.74274 | -64.63740 | 40034 ft | 478 kts | 51° |
| 2026-04-25 15:48 | 48.78233 | -64.55627 | 40033 ft | 479 kts | 51° |
| 2026-04-25 15:48 | 48.82196 | -64.47479 | 40038 ft | 480 kts | 51° |
| 2026-04-25 15:49 | 48.86151 | -64.39321 | 40036 ft | 480 kts | 51° |
| 2026-04-25 15:49 | 48.90101 | -64.31150 | 40035 ft | 480 kts | 52° |
| 2026-04-25 15:50 | 48.94046 | -64.22967 | 40029 ft | 479 kts | 51° |
| 2026-04-25 15:50 | 48.97979 | -64.14782 | 40021 ft | 479 kts | 52° |
| 2026-04-25 15:51 | 49.01246 | -64.07964 | 40017 ft | 479 kts | 52° |
| 2026-04-25 15:51 | 49.05827 | -63.98374 | 40018 ft | 478 kts | 52° |
| 2026-04-25 15:52 | 49.09722 | -63.90193 | 40010 ft | 477 kts | 52° |
| 2026-04-25 15:52 | 49.13624 | -63.81974 | 39996 ft | 477 kts | 52° |
| 2026-04-25 15:53 | 49.17512 | -63.73759 | 39992 ft | 477 kts | 52° |
| 2026-04-25 15:53 | 49.21394 | -63.65530 | 39990 ft | 477 kts | 52° |
| 2026-04-25 15:54 | 49.25274 | -63.57281 | 39991 ft | 479 kts | 52° |
| 2026-04-25 15:54 | 49.29155 | -63.49005 | 39979 ft | 480 kts | 52° |
| 2026-04-25 15:55 | 49.33031 | -63.40711 | 39979 ft | 480 kts | 53° |
| 2026-04-25 15:55 | 49.36942 | -63.32317 | 39979 ft | 480 kts | 53° |
| 2026-04-25 15:56 | 49.40809 | -63.23992 | 39981 ft | 479 kts | 52° |
| 2026-04-25 15:56 | 49.44653 | -63.15691 | 39983 ft | 479 kts | 52° |
| 2026-04-25 15:57 | 49.48531 | -63.07289 | 39972 ft | 478 kts | 52° |
| 2026-04-25 15:57 | 49.52369 | -62.98949 | 39969 ft | 478 kts | 52° |
| 2026-04-25 15:58 | 49.56171 | -62.90660 | 39978 ft | 477 kts | 53° |
| 2026-04-25 15:58 | 49.59996 | -62.82297 | 39974 ft | 477 kts | 53° |
| 2026-04-25 15:59 | 49.63828 | -62.73890 | 39976 ft | 477 kts | 53° |
| 2026-04-25 15:59 | 49.67620 | -62.65545 | 39958 ft | 477 kts | 53° |
| 2026-04-25 16:00 | 49.70167 | -62.59926 | 39964 ft | 476 kts | 53° |
| 2026-04-25 16:00 | 49.75214 | -62.48753 | 39953 ft | 474 kts | 53° |
| 2026-04-25 16:01 | 49.78970 | -62.40411 | 39943 ft | 474 kts | 53° |
| 2026-04-25 16:01 | 49.82712 | -62.32071 | 39925 ft | 475 kts | 53° |
| 2026-04-25 16:02 | 49.86487 | -62.23632 | 39923 ft | 475 kts | 53° |
| 2026-04-25 16:02 | 49.90249 | -62.15195 | 39922 ft | 474 kts | 53° |
| 2026-04-25 16:03 | 49.93976 | -62.06810 | 39924 ft | 475 kts | 53° |
| 2026-04-25 16:03 | 49.97743 | -61.98308 | 39909 ft | 475 kts | 53° |
| 2026-04-25 16:04 | 50.01467 | -61.89876 | 39912 ft | 475 kts | 53° |
| 2026-04-25 16:04 | 50.05209 | -61.81375 | 39910 ft | 475 kts | 54° |
| 2026-04-25 16:05 | 50.08931 | -61.72895 | 39911 ft | 475 kts | 54° |
| 2026-04-25 16:06 | 50.14505 | -61.60140 | 39915 ft | 475 kts | 54° |
| 2026-04-25 16:06 | 50.18184 | -61.51687 | 39913 ft | 475 kts | 54° |
| 2026-04-25 16:07 | 50.21927 | -61.43061 | 39912 ft | 475 kts | 54° |
| 2026-04-25 16:07 | 50.25620 | -61.34524 | 39889 ft | 476 kts | 54° |
| 2026-04-25 16:08 | 50.29312 | -61.25958 | 39905 ft | 475 kts | 54° |
| 2026-04-25 16:08 | 50.32956 | -61.17479 | 39887 ft | 475 kts | 54° |
| 2026-04-25 16:09 | 50.36679 | -61.08786 | 39891 ft | 474 kts | 55° |
| 2026-04-25 16:09 | 50.40341 | -61.00206 | 39893 ft | 474 kts | 54° |
| 2026-04-25 16:10 | 50.43983 | -60.91646 | 39895 ft | 474 kts | 54° |
| 2026-04-25 16:10 | 50.47608 | -60.83100 | 39894 ft | 474 kts | 55° |
| 2026-04-25 16:11 | 50.51278 | -60.74419 | 39899 ft | 474 kts | 54° |
| 2026-04-25 16:11 | 50.54918 | -60.65778 | 39897 ft | 474 kts | 55° |
| 2026-04-25 16:12 | 50.58552 | -60.57123 | 39900 ft | 474 kts | 55° |
| 2026-04-25 16:12 | 50.62169 | -60.48481 | 39904 ft | 474 kts | 55° |
| 2026-04-25 16:13 | 50.65802 | -60.39774 | 39903 ft | 474 kts | 56° |
| 2026-04-25 16:13 | 50.69397 | -60.31126 | 39890 ft | 471 kts | 55° |
| 2026-04-25 16:14 | 50.72982 | -60.22474 | 39889 ft | 470 kts | 56° |
| 2026-04-25 16:14 | 50.75951 | -60.15287 | 39893 ft | 470 kts | 56° |
| 2026-04-25 16:15 | 50.79518 | -60.06629 | 39896 ft | 470 kts | 56° |
| 2026-04-25 16:15 | 50.83074 | -59.97964 | 39897 ft | 469 kts | 55° |
| 2026-04-25 16:16 | 50.86608 | -59.89328 | 39884 ft | 467 kts | 55° |
| 2026-04-25 16:16 | 50.90135 | -59.80678 | 39885 ft | 467 kts | 55° |
| 2026-04-25 16:17 | 50.93653 | -59.72024 | 39883 ft | 467 kts | 55° |
| 2026-04-25 16:17 | 50.97161 | -59.63363 | 39885 ft | 467 kts | 55° |
| 2026-04-25 16:18 | 51.00690 | -59.54622 | 39889 ft | 468 kts | 55° |
| 2026-04-25 16:18 | 51.04195 | -59.45911 | 39867 ft | 468 kts | 55° |
| 2026-04-25 16:19 | 51.07700 | -59.37172 | 39871 ft | 468 kts | 55° |
| 2026-04-25 16:19 | 51.11196 | -59.28423 | 39870 ft | 468 kts | 56° |
| 2026-04-25 16:20 | 51.16419 | -59.15302 | 39873 ft | 470 kts | 56° |
| 2026-04-25 16:21 | 51.21662 | -59.02059 | 39857 ft | 470 kts | 56° |
| 2026-04-25 16:21 | 51.25134 | -58.93253 | 39852 ft | 470 kts | 56° |
| 2026-04-25 16:22 | 51.28586 | -58.84468 | 39856 ft | 470 kts | 56° |
| 2026-04-25 16:22 | 51.32088 | -58.75526 | 39851 ft | 469 kts | 57° |
| 2026-04-25 16:23 | 51.35540 | -58.66679 | 39855 ft | 469 kts | 57° |
| 2026-04-25 16:23 | 51.38986 | -58.57819 | 39836 ft | 469 kts | 56° |
| 2026-04-25 16:24 | 51.42431 | -58.48930 | 39830 ft | 469 kts | 57° |
| 2026-04-25 16:24 | 51.45861 | -58.40049 | 39834 ft | 470 kts | 57° |
| 2026-04-25 16:25 | 51.49304 | -58.31104 | 39841 ft | 470 kts | 57° |
| 2026-04-25 16:25 | 51.52721 | -58.22195 | 39838 ft | 470 kts | 58° |
| 2026-04-25 16:26 | 51.56143 | -58.13241 | 39825 ft | 469 kts | 58° |
| 2026-04-25 16:26 | 51.59558 | -58.04276 | 39823 ft | 470 kts | 58° |
| 2026-04-25 16:27 | 51.62948 | -57.95343 | 39839 ft | 470 kts | 58° |
| 2026-04-25 16:27 | 51.66338 | -57.86378 | 39830 ft | 470 kts | 58° |
| 2026-04-25 16:28 | 51.69741 | -57.77349 | 39826 ft | 471 kts | 58° |
| 2026-04-25 16:28 | 51.73130 | -57.68325 | 39809 ft | 470 kts | 58° |
| 2026-04-25 16:29 | 51.76509 | -57.59298 | 39814 ft | 469 kts | 58° |
| 2026-04-25 16:29 | 51.79854 | -57.50329 | 39818 ft | 468 kts | 58° |
| 2026-04-25 16:30 | 51.83223 | -57.41261 | 39820 ft | 468 kts | 58° |
| 2026-04-25 16:30 | 51.86551 | -57.32273 | 39832 ft | 467 kts | 58° |
| 2026-04-25 16:31 | 51.89885 | -57.23237 | 39809 ft | 467 kts | 59° |
| 2026-04-25 16:31 | 51.93217 | -57.14175 | 39821 ft | 467 kts | 59° |
| 2026-04-25 16:32 | 51.96533 | -57.05122 | 39825 ft | 467 kts | 59° |
| 2026-04-25 16:32 | 51.99841 | -56.96060 | 39832 ft | 467 kts | 59° |
| 2026-04-25 16:33 | 52.03123 | -56.87037 | 39831 ft | 466 kts | 59° |
| 2026-04-25 16:33 | 52.06439 | -56.77888 | 39827 ft | 468 kts | 59° |
| 2026-04-25 16:34 | 52.09702 | -56.68852 | 39832 ft | 469 kts | 59° |
| 2026-04-25 16:34 | 52.13032 | -56.59598 | 39831 ft | 469 kts | 59° |
| 2026-04-25 16:35 | 52.16317 | -56.50432 | 39841 ft | 469 kts | 59° |
| 2026-04-25 16:35 | 52.19600 | -56.41242 | 39839 ft | 469 kts | 59° |
| 2026-04-25 16:36 | 52.22878 | -56.32032 | 39829 ft | 469 kts | 59° |
| 2026-04-25 16:36 | 52.26144 | -56.22821 | 39818 ft | 469 kts | 59° |
| 2026-04-25 16:37 | 52.29401 | -56.13603 | 39812 ft | 469 kts | 59° |
| 2026-04-25 16:37 | 52.32627 | -56.04439 | 39806 ft | 469 kts | 59° |
| 2026-04-25 16:38 | 52.35864 | -55.95209 | 39807 ft | 470 kts | 60° |
| 2026-04-25 16:38 | 52.39056 | -55.85828 | 39803 ft | 471 kts | 64° |
| 2026-04-25 16:39 | 52.41043 | -55.75608 | 39803 ft | 472 kts | 76° |
| 2026-04-25 16:39 | 52.42413 | -55.65092 | 39805 ft | 473 kts | 77° |
| 2026-04-25 16:40 | 52.43711 | -55.54523 | 39791 ft | 472 kts | 77° |
| 2026-04-25 16:40 | 52.45022 | -55.43942 | 39783 ft | 472 kts | 77° |
| 2026-04-25 16:41 | 52.46335 | -55.33408 | 39770 ft | 472 kts | 77° |
| 2026-04-25 16:41 | 52.48294 | -55.17600 | 39744 ft | 471 kts | 77° |
| 2026-04-25 16:42 | 52.49582 | -55.07097 | 39735 ft | 471 kts | 77° |
| 2026-04-25 16:42 | 52.50869 | -54.96518 | 39727 ft | 471 kts | 77° |
| 2026-04-25 16:43 | 52.52146 | -54.85940 | 39718 ft | 472 kts | 78° |
| 2026-04-25 16:43 | 52.53410 | -54.75378 | 39714 ft | 472 kts | 78° |
| 2026-04-25 16:44 | 52.54668 | -54.64785 | 39700 ft | 471 kts | 78° |
| 2026-04-25 16:44 | 52.55915 | -54.54195 | 39701 ft | 471 kts | 78° |
| 2026-04-25 16:45 | 52.57150 | -54.43626 | 39700 ft | 472 kts | 78° |
| 2026-04-25 16:45 | 52.58380 | -54.33017 | 39686 ft | 472 kts | 78° |
| 2026-04-25 16:46 | 52.59597 | -54.22422 | 39695 ft | 471 kts | 78° |
| 2026-04-25 16:46 | 52.60408 | -54.15319 | 39686 ft | 473 kts | 78° |
| 2026-04-25 16:47 | 52.62010 | -54.01158 | 39678 ft | 473 kts | 78° |
| 2026-04-25 16:47 | 52.63202 | -53.90514 | 39680 ft | 473 kts | 78° |
| 2026-04-25 16:48 | 52.64386 | -53.79862 | 39667 ft | 473 kts | 79° |
| 2026-04-25 16:48 | 52.65563 | -53.69169 | 39665 ft | 473 kts | 79° |
| 2026-04-25 16:49 | 52.66727 | -53.58507 | 39664 ft | 473 kts | 79° |
| 2026-04-25 16:49 | 52.67882 | -53.47842 | 39642 ft | 474 kts | 79° |
| 2026-04-25 16:50 | 52.69026 | -53.37169 | 39658 ft | 474 kts | 79° |
| 2026-04-25 16:50 | 52.70160 | -53.26499 | 39642 ft | 473 kts | 79° |
| 2026-04-25 16:51 | 52.71288 | -53.15796 | 39629 ft | 474 kts | 79° |
| 2026-04-25 16:51 | 52.72029 | -53.08711 | 39636 ft | 473 kts | 79° |
| 2026-04-25 16:52 | 52.73510 | -52.94419 | 39648 ft | 473 kts | 79° |
| 2026-04-25 16:52 | 52.74601 | -52.83771 | 39620 ft | 473 kts | 79° |
| 2026-04-25 16:53 | 52.76233 | -52.67666 | 39622 ft | 473 kts | 80° |
| 2026-04-25 16:54 | 52.77308 | -52.56930 | 39613 ft | 473 kts | 80° |
| 2026-04-25 16:54 | 52.78367 | -52.46250 | 39615 ft | 474 kts | 80° |
| 2026-04-25 16:55 | 52.79426 | -52.35466 | 39616 ft | 473 kts | 80° |
| 2026-04-25 16:55 | 52.80474 | -52.24688 | 39595 ft | 473 kts | 80° |
| 2026-04-25 16:56 | 52.81506 | -52.13970 | 39610 ft | 473 kts | 80° |
| 2026-04-25 16:56 | 52.82527 | -52.03266 | 39606 ft | 472 kts | 80° |
| 2026-04-25 16:57 | 52.83540 | -51.92546 | 39592 ft | 472 kts | 81° |
| 2026-04-25 16:57 | 52.84545 | -51.81794 | 39589 ft | 473 kts | 81° |
| 2026-04-25 16:58 | 52.85539 | -51.71044 | 39595 ft | 473 kts | 81° |
| 2026-04-25 16:58 | 52.86363 | -51.62061 | 39597 ft | 472 kts | 81° |
| 2026-04-25 16:59 | 52.87342 | -51.51281 | 39591 ft | 472 kts | 81° |
| 2026-04-25 16:59 | 52.88310 | -51.40505 | 39587 ft | 472 kts | 81° |
| 2026-04-25 17:00 | 52.89266 | -51.29753 | 39587 ft | 471 kts | 81° |
| 2026-04-25 17:00 | 52.90211 | -51.19011 | 39597 ft | 471 kts | 81° |
| 2026-04-25 17:01 | 52.91148 | -51.08244 | 39585 ft | 472 kts | 81° |
| 2026-04-25 17:01 | 52.92068 | -50.97556 | 39580 ft | 471 kts | 81° |
| 2026-04-25 17:02 | 52.92991 | -50.86715 | 39584 ft | 472 kts | 81° |
| 2026-04-25 17:02 | 52.93892 | -50.76018 | 39572 ft | 472 kts | 81° |
| 2026-04-25 17:03 | 52.94795 | -50.65173 | 39575 ft | 471 kts | 82° |
| 2026-04-25 17:03 | 52.95628 | -50.55060 | 39577 ft | 472 kts | 82° |
| 2026-04-25 17:04 | 52.96655 | -50.42444 | 39568 ft | 472 kts | 82° |
| 2026-04-25 17:04 | 52.97520 | -50.31679 | 39565 ft | 472 kts | 82° |
| 2026-04-25 17:05 | 52.98382 | -50.20816 | 39569 ft | 473 kts | 82° |
| 2026-04-25 17:05 | 52.99651 | -50.04595 | 39563 ft | 473 kts | 82° |
| 2026-04-25 17:06 | 53.00877 | -49.93925 | 39571 ft | 472 kts | 77° |
| 2026-04-25 17:06 | 53.02400 | -49.83253 | 39559 ft | 473 kts | 76° |
| 2026-04-25 17:07 | 53.03927 | -49.72657 | 39558 ft | 473 kts | 76° |
| 2026-04-25 17:07 | 53.05449 | -49.61993 | 39566 ft | 473 kts | 77° |
| 2026-04-25 17:08 | 53.06946 | -49.51376 | 39553 ft | 474 kts | 77° |
| 2026-04-25 17:08 | 53.08446 | -49.40651 | 39557 ft | 475 kts | 77° |
| 2026-04-25 17:09 | 53.09930 | -49.29967 | 39555 ft | 474 kts | 77° |
| 2026-04-25 17:09 | 53.11408 | -49.19256 | 39558 ft | 474 kts | 77° |
| 2026-04-25 17:10 | 53.12869 | -49.08585 | 39550 ft | 474 kts | 77° |
| 2026-04-25 17:10 | 53.14316 | -48.97942 | 39549 ft | 473 kts | 77° |
| 2026-04-25 17:11 | 53.15759 | -48.87247 | 39560 ft | 474 kts | 78° |
| 2026-04-25 17:11 | 53.17201 | -48.76485 | 39554 ft | 474 kts | 78° |
| 2026-04-25 17:12 | 53.18395 | -48.67517 | 39560 ft | 474 kts | 78° |
| 2026-04-25 17:12 | 53.19812 | -48.56794 | 39561 ft | 475 kts | 78° |
| 2026-04-25 17:13 | 53.20990 | -48.47819 | 39546 ft | 475 kts | 78° |
| 2026-04-25 17:13 | 53.22630 | -48.35235 | 39553 ft | 475 kts | 78° |
| 2026-04-25 17:14 | 53.24022 | -48.24461 | 39558 ft | 475 kts | 78° |
| 2026-04-25 17:14 | 53.25404 | -48.13679 | 39562 ft | 475 kts | 78° |
| 2026-04-25 17:15 | 53.26779 | -48.02872 | 39558 ft | 475 kts | 78° |
| 2026-04-25 17:15 | 53.28144 | -47.92061 | 39556 ft | 476 kts | 79° |
| 2026-04-25 17:16 | 53.29498 | -47.81253 | 39554 ft | 476 kts | 79° |
| 2026-04-25 17:16 | 53.30834 | -47.70505 | 39557 ft | 477 kts | 79° |
| 2026-04-25 17:17 | 53.32176 | -47.59616 | 39556 ft | 477 kts | 79° |
| 2026-04-25 17:17 | 53.33513 | -47.48687 | 39559 ft | 477 kts | 79° |
| 2026-04-25 17:18 | 53.34825 | -47.37878 | 39560 ft | 477 kts | 79° |
| 2026-04-25 17:18 | 53.36139 | -47.26957 | 39551 ft | 477 kts | 79° |
| 2026-04-25 17:19 | 53.37434 | -47.16108 | 39545 ft | 477 kts | 79° |
| 2026-04-25 17:19 | 53.38724 | -47.05214 | 39552 ft | 477 kts | 80° |
| 2026-04-25 17:20 | 53.40012 | -46.94238 | 39557 ft | 478 kts | 80° |
| 2026-04-25 17:20 | 53.41273 | -46.83404 | 39554 ft | 479 kts | 80° |
| 2026-04-25 17:21 | 53.42544 | -46.72403 | 39560 ft | 479 kts | 80° |
| 2026-04-25 17:21 | 53.43797 | -46.61454 | 39568 ft | 479 kts | 80° |
| 2026-04-25 17:22 | 53.44846 | -46.52217 | 39566 ft | 479 kts | 80° |
| 2026-04-25 17:22 | 53.46281 | -46.39465 | 39563 ft | 479 kts | 80° |
| 2026-04-25 17:23 | 53.47505 | -46.28487 | 39560 ft | 479 kts | 80° |
| 2026-04-25 17:23 | 53.48722 | -46.17471 | 39551 ft | 479 kts | 80° |
| 2026-04-25 17:24 | 53.49919 | -46.06546 | 39570 ft | 479 kts | 81° |
| 2026-04-25 17:24 | 53.51124 | -45.95450 | 39569 ft | 481 kts | 81° |
| 2026-04-25 17:25 | 53.52315 | -45.84380 | 39569 ft | 482 kts | 81° |
| 2026-04-25 17:25 | 53.53497 | -45.73292 | 39569 ft | 482 kts | 81° |
| 2026-04-25 17:26 | 53.54669 | -45.62195 | 39576 ft | 482 kts | 81° |
| 2026-04-25 17:26 | 53.55830 | -45.51098 | 39573 ft | 482 kts | 81° |
| 2026-04-25 17:27 | 53.56980 | -45.39998 | 39571 ft | 482 kts | 81° |
| 2026-04-25 17:27 | 53.57930 | -45.30755 | 39578 ft | 482 kts | 81° |
| 2026-04-25 17:28 | 53.59253 | -45.17753 | 39576 ft | 482 kts | 82° |
| 2026-04-25 17:28 | 53.60374 | -45.06617 | 39579 ft | 483 kts | 82° |
| 2026-04-25 17:29 | 53.61488 | -44.95448 | 39582 ft | 483 kts | 82° |
| 2026-04-25 17:29 | 53.62590 | -44.84281 | 39585 ft | 484 kts | 82° |
| 2026-04-25 17:30 | 53.63685 | -44.73089 | 39587 ft | 484 kts | 82° |
| 2026-04-25 17:30 | 53.64768 | -44.61897 | 39592 ft | 484 kts | 82° |
| 2026-04-25 17:31 | 53.65840 | -44.50698 | 39592 ft | 484 kts | 82° |
| 2026-04-25 17:31 | 53.66899 | -44.39531 | 39598 ft | 484 kts | 82° |
| 2026-04-25 17:32 | 53.67954 | -44.28289 | 39584 ft | 484 kts | 83° |
| 2026-04-25 17:32 | 53.68995 | -44.17069 | 39598 ft | 484 kts | 83° |
| 2026-04-25 17:33 | 53.70025 | -44.05857 | 39606 ft | 485 kts | 83° |
| 2026-04-25 17:33 | 53.71045 | -43.94639 | 39603 ft | 486 kts | 83° |
| 2026-04-25 17:34 | 53.72065 | -43.83286 | 39614 ft | 486 kts | 83° |
| 2026-04-25 17:34 | 53.73059 | -43.72107 | 39614 ft | 486 kts | 83° |
| 2026-04-25 17:35 | 53.74056 | -43.60773 | 39619 ft | 486 kts | 83° |
| 2026-04-25 17:35 | 53.75035 | -43.49515 | 39620 ft | 486 kts | 83° |
| 2026-04-25 17:36 | 53.76004 | -43.38246 | 39625 ft | 486 kts | 84° |
| 2026-04-25 17:36 | 53.76963 | -43.26963 | 39624 ft | 486 kts | 84° |
| 2026-04-25 17:37 | 53.77922 | -43.15549 | 39633 ft | 487 kts | 84° |
| 2026-04-25 17:37 | 53.78856 | -43.04291 | 39621 ft | 487 kts | 84° |
| 2026-04-25 17:38 | 53.79483 | -42.96675 | 39632 ft | 488 kts | 84° |
| 2026-04-25 17:38 | 53.80709 | -42.81587 | 39639 ft | 488 kts | 84° |
| 2026-04-25 17:39 | 53.81620 | -42.70215 | 39639 ft | 488 kts | 84° |
| 2026-04-25 17:39 | 53.82522 | -42.58806 | 39647 ft | 488 kts | 84° |
| 2026-04-25 17:40 | 53.83414 | -42.47396 | 39647 ft | 488 kts | 84° |
| 2026-04-25 17:40 | 53.84289 | -42.36049 | 39655 ft | 488 kts | 84° |
| 2026-04-25 17:41 | 53.85160 | -42.24619 | 39653 ft | 489 kts | 84° |
| 2026-04-25 17:41 | 53.86024 | -42.13131 | 39662 ft | 489 kts | 85° |
| 2026-04-25 17:42 | 53.86874 | -42.01678 | 39659 ft | 489 kts | 85° |
| 2026-04-25 17:42 | 53.87711 | -41.90242 | 39669 ft | 489 kts | 85° |
| 2026-04-25 17:43 | 53.88531 | -41.78898 | 39662 ft | 489 kts | 85° |
| 2026-04-25 17:43 | 53.89346 | -41.67470 | 39675 ft | 489 kts | 85° |
| 2026-04-25 17:44 | 53.90156 | -41.55949 | 39675 ft | 489 kts | 85° |
| 2026-04-25 17:44 | 53.90945 | -41.44566 | 39683 ft | 489 kts | 85° |
| 2026-04-25 17:45 | 53.91469 | -41.36915 | 39675 ft | 489 kts | 85° |
| 2026-04-25 17:45 | 53.92507 | -41.21540 | 39686 ft | 491 kts | 85° |
| 2026-04-25 17:46 | 53.93268 | -41.10078 | 39691 ft | 491 kts | 85° |
| 2026-04-25 17:46 | 53.94016 | -40.98635 | 39686 ft | 491 kts | 86° |
| 2026-04-25 17:47 | 53.94762 | -40.87057 | 39699 ft | 491 kts | 86° |
| 2026-04-25 17:47 | 53.95494 | -40.75530 | 39697 ft | 491 kts | 86° |
| 2026-04-25 17:48 | 53.96572 | -40.58200 | 39705 ft | 491 kts | 86° |
| 2026-04-25 17:49 | 53.97276 | -40.46659 | 39703 ft | 491 kts | 86° |
| 2026-04-25 17:49 | 53.97968 | -40.35128 | 39701 ft | 492 kts | 86° |
| 2026-04-25 17:50 | 53.98650 | -40.23577 | 39710 ft | 493 kts | 86° |
| 2026-04-25 17:50 | 53.99326 | -40.11943 | 39711 ft | 493 kts | 86° |
| 2026-04-25 17:51 | 53.99988 | -40.00351 | 39710 ft | 493 kts | 87° |
| 2026-04-25 17:51 | 54.00543 | -39.88793 | 39715 ft | 492 kts | 88° |
| 2026-04-25 17:52 | 54.00970 | -39.77169 | 39711 ft | 493 kts | 89° |
| 2026-04-25 17:52 | 54.01395 | -39.65557 | 39722 ft | 493 kts | 89° |
| 2026-04-25 17:53 | 54.01831 | -39.53955 | 39721 ft | 493 kts | 89° |
| 2026-04-25 17:53 | 54.02267 | -39.42268 | 39730 ft | 493 kts | 89° |
| 2026-04-25 17:54 | 54.02690 | -39.30640 | 39722 ft | 494 kts | 89° |
| 2026-04-25 17:54 | 54.03035 | -39.20922 | 39730 ft | 494 kts | 89° |
| 2026-04-25 17:55 | 54.03437 | -39.09257 | 39740 ft | 494 kts | 89° |
| 2026-04-25 17:55 | 54.03831 | -38.97519 | 39741 ft | 494 kts | 89° |
| 2026-04-25 17:56 | 54.04209 | -38.85913 | 39744 ft | 494 kts | 89° |
| 2026-04-25 17:56 | 54.04579 | -38.74197 | 39744 ft | 494 kts | 89° |
| 2026-04-25 17:57 | 54.04936 | -38.62528 | 39748 ft | 494 kts | 89° |
| 2026-04-25 17:57 | 54.05280 | -38.50902 | 39750 ft | 495 kts | 90° |
| 2026-04-25 17:58 | 54.05616 | -38.39162 | 39760 ft | 496 kts | 90° |
| 2026-04-25 17:58 | 54.05942 | -38.27407 | 39760 ft | 496 kts | 90° |
| 2026-04-25 17:59 | 54.06252 | -38.15779 | 39766 ft | 496 kts | 90° |
| 2026-04-25 17:59 | 54.06556 | -38.03969 | 39757 ft | 496 kts | 90° |
| 2026-04-25 18:00 | 54.06846 | -37.92253 | 39769 ft | 496 kts | 90° |
| 2026-04-25 18:00 | 54.07126 | -37.80475 | 39777 ft | 497 kts | 90° |
| 2026-04-25 18:01 | 54.07391 | -37.68836 | 39766 ft | 497 kts | 90° |
| 2026-04-25 18:01 | 54.07648 | -37.57049 | 39784 ft | 497 kts | 90° |
| 2026-04-25 18:02 | 54.07894 | -37.45235 | 39784 ft | 497 kts | 90° |
| 2026-04-25 18:02 | 54.08128 | -37.33454 | 39785 ft | 498 kts | 90° |
| 2026-04-25 18:03 | 54.08351 | -37.21669 | 39790 ft | 498 kts | 91° |
| 2026-04-25 18:03 | 54.08562 | -37.09888 | 39799 ft | 498 kts | 91° |
| 2026-04-25 18:04 | 54.08762 | -36.98048 | 39798 ft | 498 kts | 91° |
| 2026-04-25 18:04 | 54.08950 | -36.86288 | 39807 ft | 498 kts | 91° |
| 2026-04-25 18:05 | 54.09126 | -36.74456 | 39795 ft | 498 kts | 91° |
| 2026-04-25 18:05 | 54.09291 | -36.62682 | 39813 ft | 500 kts | 91° |
| 2026-04-25 18:06 | 54.09445 | -36.50813 | 39811 ft | 500 kts | 91° |
| 2026-04-25 18:06 | 54.09588 | -36.38965 | 39810 ft | 500 kts | 91° |
| 2026-04-25 18:07 | 54.09718 | -36.27166 | 39817 ft | 500 kts | 91° |
| 2026-04-25 18:07 | 54.09837 | -36.15295 | 39822 ft | 500 kts | 91° |
| 2026-04-25 18:08 | 54.09944 | -36.03456 | 39823 ft | 500 kts | 91° |
| 2026-04-25 18:08 | 54.10040 | -35.91676 | 39825 ft | 500 kts | 91° |
| 2026-04-25 18:09 | 54.10124 | -35.79754 | 39844 ft | 500 kts | 92° |
| 2026-04-25 18:09 | 54.10197 | -35.67913 | 39827 ft | 501 kts | 92° |
| 2026-04-25 18:10 | 54.10258 | -35.56015 | 39826 ft | 502 kts | 92° |
| 2026-04-25 18:10 | 54.10307 | -35.44208 | 39840 ft | 501 kts | 92° |
| 2026-04-25 18:11 | 54.10345 | -35.32251 | 39845 ft | 502 kts | 92° |
| 2026-04-25 18:11 | 54.10371 | -35.20370 | 39845 ft | 502 kts | 92° |
| 2026-04-25 18:12 | 54.10385 | -35.08478 | 39849 ft | 502 kts | 92° |
| 2026-04-25 18:12 | 54.10387 | -34.96680 | 39847 ft | 502 kts | 92° |
| 2026-04-25 18:13 | 54.10378 | -34.84668 | 39852 ft | 502 kts | 92° |
| 2026-04-25 18:13 | 54.10357 | -34.72868 | 39852 ft | 503 kts | 92° |
| 2026-04-25 18:14 | 54.10303 | -34.54942 | 39863 ft | 504 kts | 92° |
| 2026-04-25 18:14 | 54.10253 | -34.43030 | 39861 ft | 503 kts | 92° |
| 2026-04-25 18:15 | 54.10191 | -34.31080 | 39864 ft | 503 kts | 92° |
| 2026-04-25 18:15 | 54.10117 | -34.19164 | 39867 ft | 503 kts | 92° |
| 2026-04-25 18:16 | 54.10031 | -34.07234 | 39870 ft | 503 kts | 93° |
| 2026-04-25 18:17 | 54.09880 | -33.89338 | 39868 ft | 504 kts | 93° |
| 2026-04-25 18:17 | 54.09764 | -33.77397 | 39870 ft | 504 kts | 93° |
| 2026-04-25 18:18 | 54.09637 | -33.65479 | 39872 ft | 504 kts | 93° |
| 2026-04-25 18:18 | 54.09498 | -33.53544 | 39867 ft | 504 kts | 93° |
| 2026-04-25 18:19 | 54.09347 | -33.41571 | 39878 ft | 505 kts | 93° |
| 2026-04-25 18:19 | 54.09184 | -33.29653 | 39875 ft | 505 kts | 93° |
| 2026-04-25 18:20 | 54.09009 | -33.17657 | 39880 ft | 505 kts | 94° |
| 2026-04-25 18:20 | 54.08822 | -33.05708 | 39880 ft | 505 kts | 94° |
| 2026-04-25 18:21 | 54.08625 | -32.93795 | 39885 ft | 505 kts | 94° |
| 2026-04-25 18:21 | 54.08414 | -32.81822 | 39890 ft | 505 kts | 94° |
| 2026-04-25 18:22 | 54.08193 | -32.69947 | 39890 ft | 506 kts | 94° |
| 2026-04-25 18:22 | 54.07958 | -32.57963 | 39888 ft | 506 kts | 94° |
| 2026-04-25 18:23 | 54.07714 | -32.46078 | 39893 ft | 506 kts | 94° |
| 2026-04-25 18:23 | 54.07454 | -32.34026 | 39896 ft | 505 kts | 94° |
| 2026-04-25 18:24 | 54.07182 | -32.22009 | 39897 ft | 505 kts | 94° |
| 2026-04-25 18:24 | 54.06902 | -32.10109 | 39897 ft | 506 kts | 94° |
| 2026-04-25 18:25 | 54.06605 | -31.98038 | 39904 ft | 507 kts | 94° |
| 2026-04-25 18:25 | 54.06301 | -31.86144 | 39901 ft | 507 kts | 94° |
| 2026-04-25 18:26 | 54.05982 | -31.74101 | 39901 ft | 507 kts | 94° |
| 2026-04-25 18:26 | 54.05651 | -31.62122 | 39912 ft | 507 kts | 94° |
| 2026-04-25 18:27 | 54.05309 | -31.50142 | 39904 ft | 507 kts | 94° |
| 2026-04-25 18:27 | 54.04955 | -31.38152 | 39922 ft | 507 kts | 95° |
| 2026-04-25 18:28 | 54.04589 | -31.26165 | 39904 ft | 507 kts | 95° |
| 2026-04-25 18:28 | 54.04213 | -31.14244 | 39917 ft | 507 kts | 95° |
| 2026-04-25 18:29 | 54.03621 | -30.96203 | 39917 ft | 508 kts | 95° |
| 2026-04-25 18:30 | 54.02794 | -30.72285 | 39922 ft | 508 kts | 95° |
| 2026-04-25 18:30 | 54.02361 | -30.60273 | 39923 ft | 508 kts | 95° |
| 2026-04-25 18:31 | 54.01917 | -30.48288 | 39935 ft | 508 kts | 95° |
| 2026-04-25 18:31 | 54.01461 | -30.36296 | 39919 ft | 508 kts | 95° |
| 2026-04-25 18:32 | 54.00992 | -30.24293 | 39928 ft | 509 kts | 95° |
| 2026-04-25 18:32 | 54.00512 | -30.12317 | 39933 ft | 509 kts | 95° |
| 2026-04-25 18:33 | 54.00108 | -30.00359 | 39929 ft | 510 kts | 90° |
| 2026-04-25 18:33 | 54.00484 | -29.88289 | 39938 ft | 511 kts | 88° |
| 2026-04-25 18:34 | 54.00962 | -29.76172 | 39937 ft | 511 kts | 87° |
| 2026-04-25 18:34 | 54.01442 | -29.64093 | 39935 ft | 511 kts | 87° |
| 2026-04-25 18:35 | 54.01906 | -29.52041 | 39938 ft | 511 kts | 87° |
| 2026-04-25 18:35 | 54.02354 | -29.39986 | 39938 ft | 511 kts | 88° |
| 2026-04-25 18:36 | 54.02789 | -29.27913 | 39938 ft | 511 kts | 88° |
| 2026-04-25 18:36 | 54.03212 | -29.15842 | 39937 ft | 512 kts | 88° |
| 2026-04-25 18:37 | 54.03623 | -29.03768 | 39941 ft | 512 kts | 88° |
| 2026-04-25 18:37 | 54.04023 | -28.91666 | 39944 ft | 512 kts | 88° |
| 2026-04-25 18:38 | 54.04411 | -28.79563 | 39944 ft | 512 kts | 88° |
| 2026-04-25 18:38 | 54.04786 | -28.67493 | 39947 ft | 512 kts | 88° |
| 2026-04-25 18:39 | 54.05089 | -28.57426 | 39944 ft | 512 kts | 88° |
| 2026-04-25 18:39 | 54.05443 | -28.45287 | 39947 ft | 513 kts | 88° |
| 2026-04-25 18:40 | 54.05838 | -28.31212 | 39949 ft | 513 kts | 88° |
| 2026-04-25 18:40 | 54.06112 | -28.21113 | 39950 ft | 513 kts | 88° |
| 2026-04-25 18:41 | 54.06429 | -28.08970 | 39947 ft | 513 kts | 89° |
| 2026-04-25 18:41 | 54.06732 | -27.96944 | 39941 ft | 513 kts | 89° |
| 2026-04-25 18:42 | 54.06979 | -27.86741 | 39952 ft | 513 kts | 89° |
| 2026-04-25 18:42 | 54.07306 | -27.72635 | 39952 ft | 513 kts | 89° |
| 2026-04-25 18:43 | 54.07577 | -27.60404 | 39949 ft | 513 kts | 89° |
| 2026-04-25 18:43 | 54.07832 | -27.48312 | 39955 ft | 513 kts | 89° |
| 2026-04-25 18:44 | 54.08076 | -27.36177 | 39953 ft | 513 kts | 89° |
| 2026-04-25 18:44 | 54.08308 | -27.24024 | 39955 ft | 514 kts | 89° |
| 2026-04-25 18:45 | 54.08529 | -27.11802 | 39955 ft | 514 kts | 89° |
| 2026-04-25 18:45 | 54.08735 | -26.99712 | 39955 ft | 514 kts | 89° |
| 2026-04-25 18:46 | 54.08931 | -26.87485 | 39958 ft | 514 kts | 90° |
| 2026-04-25 18:46 | 54.09114 | -26.75369 | 39958 ft | 514 kts | 90° |
| 2026-04-25 18:47 | 54.09285 | -26.63184 | 39961 ft | 514 kts | 90° |
| 2026-04-25 18:47 | 54.09443 | -26.51020 | 39961 ft | 514 kts | 90° |
| 2026-04-25 18:48 | 54.09590 | -26.38821 | 39963 ft | 514 kts | 90° |
| 2026-04-25 18:48 | 54.09724 | -26.26649 | 39958 ft | 514 kts | 90° |
| 2026-04-25 18:49 | 54.09845 | -26.14451 | 39961 ft | 514 kts | 90° |
| 2026-04-25 18:49 | 54.09955 | -26.02279 | 39955 ft | 515 kts | 90° |
| 2026-04-25 18:50 | 54.10052 | -25.90105 | 39961 ft | 515 kts | 90° |
| 2026-04-25 18:50 | 54.10137 | -25.77893 | 39960 ft | 515 kts | 90° |
| 2026-04-25 18:51 | 54.10199 | -25.67679 | 39964 ft | 515 kts | 91° |
| 2026-04-25 18:51 | 54.10270 | -25.53506 | 39965 ft | 515 kts | 91° |
| 2026-04-25 18:52 | 54.10318 | -25.41290 | 39964 ft | 515 kts | 91° |
| 2026-04-25 18:52 | 54.10353 | -25.29138 | 39966 ft | 514 kts | 91° |
| 2026-04-25 18:53 | 54.10376 | -25.16930 | 39966 ft | 514 kts | 91° |
| 2026-04-25 18:53 | 54.10387 | -25.04754 | 39965 ft | 514 kts | 91° |
| 2026-04-25 18:54 | 54.10380 | -24.86467 | 39966 ft | 514 kts | 91° |
| 2026-04-25 18:55 | 54.10361 | -24.74274 | 39969 ft | 514 kts | 91° |
| 2026-04-25 18:55 | 54.10328 | -24.62084 | 39969 ft | 514 kts | 91° |
| 2026-04-25 18:56 | 54.10284 | -24.49893 | 39971 ft | 514 kts | 91° |
| 2026-04-25 18:56 | 54.10227 | -24.37654 | 39974 ft | 514 kts | 92° |
| 2026-04-25 18:57 | 54.10158 | -24.25524 | 39971 ft | 514 kts | 92° |
| 2026-04-25 18:57 | 54.10077 | -24.13345 | 39974 ft | 514 kts | 92° |
| 2026-04-25 18:58 | 54.09982 | -24.01078 | 39974 ft | 514 kts | 92° |
| 2026-04-25 18:58 | 54.09819 | -23.82821 | 39977 ft | 514 kts | 92° |
| 2026-04-25 18:59 | 54.09557 | -23.58456 | 39977 ft | 514 kts | 92° |
| 2026-04-25 19:00 | 54.09332 | -23.40382 | 39985 ft | 514 kts | 92° |
| 2026-04-25 19:01 | 54.09074 | -23.22005 | 39982 ft | 514 kts | 93° |
| 2026-04-25 19:01 | 54.08889 | -23.09881 | 39980 ft | 513 kts | 93° |
| 2026-04-25 19:02 | 54.08587 | -22.91583 | 39980 ft | 513 kts | 93° |
| 2026-04-25 19:03 | 54.08336 | -22.77535 | 39987 ft | 513 kts | 93° |
| 2026-04-25 19:03 | 54.08025 | -22.61283 | 39988 ft | 513 kts | 94° |
| 2026-04-25 19:04 | 54.07651 | -22.43133 | 39988 ft | 513 kts | 94° |
| 2026-04-25 19:05 | 54.07108 | -22.18813 | 39987 ft | 513 kts | 94° |
| 2026-04-25 19:06 | 54.06820 | -22.06718 | 39991 ft | 513 kts | 94° |
| 2026-04-25 19:06 | 54.06363 | -21.88506 | 39994 ft | 513 kts | 94° |
| 2026-04-25 19:07 | 54.05878 | -21.70299 | 39996 ft | 513 kts | 94° |
| 2026-04-25 19:08 | 54.05368 | -21.52148 | 39998 ft | 513 kts | 95° |
| 2026-04-25 19:09 | 54.04766 | -21.31922 | 40004 ft | 513 kts | 95° |
| 2026-04-25 19:10 | 54.04068 | -21.09745 | 40005 ft | 513 kts | 95° |
| 2026-04-25 19:10 | 54.03669 | -20.97638 | 40010 ft | 513 kts | 95° |
| 2026-04-25 19:11 | 54.03257 | -20.85515 | 40015 ft | 512 kts | 95° |
| 2026-04-25 19:11 | 54.02837 | -20.73492 | 40015 ft | 512 kts | 95° |
| 2026-04-25 19:12 | 54.02404 | -20.61455 | 40020 ft | 512 kts | 95° |
| 2026-04-25 19:12 | 54.01954 | -20.49281 | 40009 ft | 512 kts | 96° |
| 2026-04-25 19:13 | 54.01494 | -20.37162 | 40021 ft | 512 kts | 96° |
| 2026-04-25 19:13 | 54.01024 | -20.25103 | 40026 ft | 511 kts | 96° |
| 2026-04-25 19:14 | 54.00542 | -20.13057 | 40031 ft | 511 kts | 96° |
| 2026-04-25 19:14 | 54.00079 | -20.01037 | 40028 ft | 512 kts | 94° |
| 2026-04-25 19:15 | 54.00205 | -19.88859 | 40040 ft | 513 kts | 90° |
| 2026-04-25 19:15 | 54.00446 | -19.76759 | 40039 ft | 513 kts | 90° |
| 2026-04-25 19:16 | 54.00684 | -19.64648 | 40046 ft | 513 kts | 90° |
| 2026-04-25 19:16 | 54.00897 | -19.52674 | 40045 ft | 513 kts | 90° |
| 2026-04-25 19:17 | 54.01097 | -19.40449 | 40046 ft | 513 kts | 90° |
| 2026-04-25 19:17 | 54.01282 | -19.28328 | 40047 ft | 513 kts | 90° |
| 2026-04-25 19:18 | 54.01455 | -19.16173 | 40049 ft | 513 kts | 91° |
| 2026-04-25 19:18 | 54.01616 | -19.04113 | 40073 ft | 513 kts | 91° |
| 2026-04-25 19:19 | 54.01764 | -18.92031 | 40056 ft | 512 kts | 91° |
| 2026-04-25 19:19 | 54.01880 | -18.81786 | 40063 ft | 512 kts | 91° |
| 2026-04-25 19:20 | 54.02006 | -18.69753 | 40049 ft | 512 kts | 91° |
| 2026-04-25 19:20 | 54.02121 | -18.57574 | 40062 ft | 512 kts | 91° |
| 2026-04-25 19:21 | 54.02222 | -18.45554 | 40068 ft | 512 kts | 91° |
| 2026-04-25 19:21 | 54.02353 | -18.27333 | 40074 ft | 512 kts | 91° |
| 2026-04-25 19:22 | 54.02424 | -18.15244 | 40068 ft | 511 kts | 92° |
| 2026-04-25 19:23 | 54.02509 | -17.97103 | 40075 ft | 511 kts | 92° |
| 2026-04-25 19:23 | 54.02566 | -17.78952 | 40082 ft | 511 kts | 92° |
| 2026-04-25 19:24 | 54.02589 | -17.66883 | 40086 ft | 511 kts | 92° |
| 2026-04-25 19:25 | 54.02599 | -17.42764 | 40089 ft | 511 kts | 92° |
| 2026-04-25 19:25 | 54.02585 | -17.30612 | 40097 ft | 511 kts | 92° |
| 2026-04-25 19:26 | 54.02560 | -17.18619 | 40089 ft | 511 kts | 93° |
| 2026-04-25 19:26 | 54.02522 | -17.06591 | 40095 ft | 511 kts | 93° |
| 2026-04-25 19:27 | 54.02482 | -16.96421 | 40102 ft | 511 kts | 93° |
| 2026-04-25 19:27 | 54.02411 | -16.82357 | 40103 ft | 511 kts | 93° |
| 2026-04-25 19:28 | 54.02337 | -16.70300 | 40102 ft | 511 kts | 93° |
| 2026-04-25 19:28 | 54.02251 | -16.58189 | 40105 ft | 511 kts | 93° |
| 2026-04-25 19:29 | 54.02153 | -16.46116 | 40120 ft | 511 kts | 94° |
| 2026-04-25 19:29 | 54.02043 | -16.34034 | 40119 ft | 511 kts | 94° |
| 2026-04-25 19:30 | 54.01920 | -16.21937 | 40120 ft | 511 kts | 94° |
| 2026-04-25 19:30 | 54.01786 | -16.09898 | 40122 ft | 511 kts | 94° |
| 2026-04-25 19:31 | 54.01639 | -15.97766 | 40108 ft | 511 kts | 94° |
| 2026-04-25 19:31 | 54.01481 | -15.85718 | 40128 ft | 511 kts | 94° |
| 2026-04-25 19:32 | 54.01310 | -15.73670 | 40138 ft | 511 kts | 94° |
| 2026-04-25 19:32 | 54.01160 | -15.63654 | 40139 ft | 511 kts | 94° |
| 2026-04-25 19:33 | 54.00933 | -15.49526 | 40131 ft | 511 kts | 94° |
| 2026-04-25 19:33 | 54.00725 | -15.37414 | 40128 ft | 511 kts | 94° |
| 2026-04-25 19:34 | 54.00507 | -15.25382 | 40136 ft | 510 kts | 95° |
| 2026-04-25 19:34 | 54.00276 | -15.13324 | 40135 ft | 510 kts | 95° |
| 2026-04-25 19:35 | 54.00034 | -15.01298 | 40143 ft | 510 kts | 95° |
| 2026-04-25 19:35 | 53.99910 | -14.89221 | 40141 ft | 511 kts | 92° |
| 2026-04-25 19:36 | 54.00010 | -14.77179 | 40146 ft | 511 kts | 91° |
| 2026-04-25 19:36 | 54.00090 | -14.65072 | 40147 ft | 511 kts | 92° |
| 2026-04-25 19:37 | 54.00116 | -14.52968 | 40148 ft | 511 kts | 92° |
| 2026-04-25 19:37 | 54.00111 | -14.40903 | 40156 ft | 511 kts | 92° |
| 2026-04-25 19:38 | 54.00086 | -14.28871 | 40151 ft | 510 kts | 93° |
| 2026-04-25 19:38 | 53.99326 | -14.16915 | 40157 ft | 507 kts | 102° |
| 2026-04-25 19:39 | 53.98128 | -14.05106 | 40162 ft | 506 kts | 103° |
| 2026-04-25 19:39 | 53.96853 | -13.93353 | 40158 ft | 506 kts | 103° |
| 2026-04-25 19:40 | 53.95583 | -13.81590 | 40157 ft | 506 kts | 103° |
| 2026-04-25 19:40 | 53.94322 | -13.69856 | 40163 ft | 506 kts | 103° |
| 2026-04-25 19:41 | 53.93051 | -13.58084 | 40168 ft | 507 kts | 103° |
| 2026-04-25 19:41 | 53.92203 | -13.50287 | 40170 ft | 507 kts | 103° |
| 2026-04-25 19:42 | 53.90476 | -13.34582 | 40173 ft | 507 kts | 103° |
| 2026-04-25 19:42 | 53.89170 | -13.22839 | 40178 ft | 507 kts | 103° |
| 2026-04-25 19:43 | 53.87856 | -13.11137 | 40178 ft | 506 kts | 103° |
| 2026-04-25 19:43 | 53.86527 | -12.99413 | 40178 ft | 506 kts | 103° |
| 2026-04-25 19:44 | 53.85186 | -12.87684 | 40179 ft | 506 kts | 103° |
| 2026-04-25 19:44 | 53.83845 | -12.76066 | 40188 ft | 507 kts | 103° |
| 2026-04-25 19:45 | 53.82473 | -12.64289 | 40448 ft | 506 kts | 103° |
| 2026-04-25 19:45 | 53.81788 | -12.58448 | 40614 ft | 506 kts | 103° |
| 2026-04-25 19:45 | 53.81114 | -12.52717 | 40756 ft | 506 kts | 103° |
| 2026-04-25 19:46 | 53.80439 | -12.47013 | 40905 ft | 506 kts | 103° |
| 2026-04-25 19:46 | 53.79747 | -12.41186 | 41059 ft | 505 kts | 103° |
| 2026-04-25 19:46 | 53.79051 | -12.35358 | 41168 ft | 506 kts | 103° |
| 2026-04-25 19:46 | 53.78335 | -12.29383 | 41189 ft | 508 kts | 103° |
| 2026-04-25 19:47 | 53.76926 | -12.17706 | 41190 ft | 507 kts | 103° |
| 2026-04-25 19:47 | 53.75506 | -12.06037 | 41184 ft | 506 kts | 103° |
| 2026-04-25 19:48 | 53.74077 | -11.94396 | 41195 ft | 506 kts | 103° |
| 2026-04-25 19:48 | 53.72638 | -11.82773 | 41194 ft | 506 kts | 104° |
| 2026-04-25 19:49 | 53.71667 | -11.74985 | 41194 ft | 506 kts | 104° |
| 2026-04-25 19:49 | 53.69728 | -11.59562 | 41194 ft | 506 kts | 104° |
| 2026-04-25 19:50 | 53.67514 | -11.42159 | 41198 ft | 506 kts | 104° |
| 2026-04-25 19:51 | 53.66024 | -11.30569 | 41197 ft | 506 kts | 104° |
| 2026-04-25 19:51 | 53.64520 | -11.18965 | 41197 ft | 506 kts | 104° |
| 2026-04-25 19:52 | 53.63015 | -11.07451 | 41201 ft | 506 kts | 104° |
| 2026-04-25 19:52 | 53.61478 | -10.95780 | 41203 ft | 506 kts | 104° |
| 2026-04-25 19:53 | 53.59942 | -10.84216 | 41202 ft | 506 kts | 104° |
| 2026-04-25 19:53 | 53.58393 | -10.72644 | 41203 ft | 506 kts | 104° |
| 2026-04-25 19:54 | 53.56844 | -10.61163 | 41208 ft | 506 kts | 104° |
| 2026-04-25 19:54 | 53.55302 | -10.49817 | 41208 ft | 506 kts | 104° |
| 2026-04-25 19:55 | 53.53689 | -10.38045 | 41197 ft | 506 kts | 104° |
| 2026-04-25 19:55 | 53.52117 | -10.26667 | 41210 ft | 506 kts | 104° |
| 2026-04-25 19:56 | 53.50502 | -10.15060 | 41211 ft | 506 kts | 105° |
| 2026-04-25 19:56 | 53.48880 | -10.03493 | 41211 ft | 506 kts | 105° |
| 2026-04-25 19:57 | 53.47256 | -9.91997 | 41211 ft | 506 kts | 105° |
| 2026-04-25 19:57 | 53.45621 | -9.80517 | 41207 ft | 506 kts | 105° |
| 2026-04-25 19:58 | 53.43974 | -9.69031 | 41204 ft | 506 kts | 105° |
| 2026-04-25 19:58 | 53.42324 | -9.57617 | 41203 ft | 506 kts | 105° |
| 2026-04-25 19:59 | 53.40644 | -9.46072 | 41202 ft | 506 kts | 105° |
| 2026-04-25 19:59 | 53.38965 | -9.34624 | 41204 ft | 506 kts | 105° |
| 2026-04-25 20:00 | 53.37273 | -9.23172 | 41201 ft | 506 kts | 105° |
| 2026-04-25 20:00 | 53.35572 | -9.11738 | 41202 ft | 505 kts | 105° |
| 2026-04-25 20:01 | 53.33015 | -8.94712 | 41199 ft | 505 kts | 105° |
| 2026-04-25 20:01 | 53.31290 | -8.83319 | 41196 ft | 505 kts | 105° |
| 2026-04-25 20:02 | 53.29555 | -8.71951 | 41198 ft | 505 kts | 105° |
| 2026-04-25 20:02 | 53.27809 | -8.60587 | 41196 ft | 505 kts | 105° |
| 2026-04-25 20:03 | 53.26051 | -8.49220 | 41182 ft | 505 kts | 105° |
| 2026-04-25 20:03 | 53.24572 | -8.39722 | 41189 ft | 505 kts | 106° |
| 2026-04-25 20:04 | 53.22797 | -8.28396 | 41192 ft | 505 kts | 106° |
| 2026-04-25 20:04 | 53.21008 | -8.17055 | 41187 ft | 505 kts | 106° |
| 2026-04-25 20:05 | 53.19230 | -8.05860 | 41183 ft | 504 kts | 106° |
| 2026-04-25 20:05 | 53.17411 | -7.94486 | 41176 ft | 504 kts | 106° |
| 2026-04-25 20:06 | 53.15600 | -7.83240 | 41186 ft | 504 kts | 106° |
| 2026-04-25 20:06 | 53.13776 | -7.71984 | 41186 ft | 504 kts | 106° |
| 2026-04-25 20:07 | 53.11938 | -7.60721 | 41180 ft | 504 kts | 106° |
| 2026-04-25 20:07 | 53.10101 | -7.49537 | 41189 ft | 504 kts | 106° |
| 2026-04-25 20:08 | 53.08238 | -7.38266 | 41189 ft | 504 kts | 107° |
| 2026-04-25 20:08 | 53.06366 | -7.27022 | 41189 ft | 504 kts | 107° |
| 2026-04-25 20:09 | 53.04489 | -7.15814 | 41189 ft | 504 kts | 107° |
| 2026-04-25 20:09 | 53.02598 | -7.04599 | 41188 ft | 503 kts | 107° |
| 2026-04-25 20:10 | 53.00705 | -6.93440 | 41191 ft | 503 kts | 107° |
| 2026-04-25 20:10 | 52.98790 | -6.82226 | 41194 ft | 503 kts | 107° |
| 2026-04-25 20:11 | 52.96880 | -6.71110 | 41193 ft | 503 kts | 107° |
| 2026-04-25 20:11 | 52.94943 | -6.59911 | 41201 ft | 503 kts | 107° |
| 2026-04-25 20:12 | 52.93010 | -6.48806 | 41198 ft | 502 kts | 107° |
| 2026-04-25 20:12 | 52.91378 | -6.39479 | 41202 ft | 502 kts | 107° |
| 2026-04-25 20:13 | 52.89104 | -6.26570 | 41211 ft | 502 kts | 107° |
| 2026-04-25 20:13 | 52.87139 | -6.15486 | 41209 ft | 502 kts | 107° |
| 2026-04-25 20:14 | 52.85163 | -6.04411 | 41199 ft | 502 kts | 107° |
| 2026-04-25 20:14 | 52.83181 | -5.93368 | 41205 ft | 502 kts | 108° |
| 2026-04-25 20:15 | 52.81192 | -5.82352 | 41214 ft | 502 kts | 108° |
| 2026-04-25 20:15 | 52.79174 | -5.71244 | 41214 ft | 502 kts | 108° |
| 2026-04-25 20:16 | 52.77158 | -5.60218 | 41214 ft | 502 kts | 108° |
| 2026-04-25 20:16 | 52.74968 | -5.49333 | 41216 ft | 500 kts | 115° |
| 2026-04-25 20:17 | 52.71921 | -5.38999 | 41212 ft | 499 kts | 118° |
| 2026-04-25 20:17 | 52.68678 | -5.28898 | 41216 ft | 500 kts | 120° |
| 2026-04-25 20:18 | 52.65399 | -5.18794 | 41218 ft | 500 kts | 119° |
| 2026-04-25 20:18 | 52.62144 | -5.08702 | 41219 ft | 500 kts | 119° |
| 2026-04-25 20:19 | 52.58909 | -4.98654 | 41219 ft | 499 kts | 119° |
| 2026-04-25 20:19 | 52.55629 | -4.88501 | 41219 ft | 499 kts | 119° |
| 2026-04-25 20:20 | 52.52370 | -4.78459 | 41217 ft | 499 kts | 120° |
| 2026-04-25 20:20 | 52.49094 | -4.68409 | 41217 ft | 499 kts | 120° |
| 2026-04-25 20:21 | 52.45842 | -4.58474 | 41219 ft | 499 kts | 120° |
| 2026-04-25 20:21 | 52.42519 | -4.48364 | 41212 ft | 499 kts | 120° |
| 2026-04-25 20:22 | 52.40336 | -4.41742 | 41215 ft | 499 kts | 120° |
| 2026-04-25 20:22 | 52.35927 | -4.28425 | 41220 ft | 500 kts | 120° |
| 2026-04-25 20:23 | 52.32602 | -4.18428 | 41220 ft | 500 kts | 120° |
| 2026-04-25 20:23 | 52.29276 | -4.08471 | 41218 ft | 500 kts | 120° |
| 2026-04-25 20:24 | 52.25910 | -3.98432 | 41218 ft | 500 kts | 120° |
| 2026-04-25 20:24 | 52.22588 | -3.88567 | 41218 ft | 500 kts | 120° |
| 2026-04-25 20:25 | 52.19253 | -3.78700 | 41219 ft | 499 kts | 120° |
| 2026-04-25 20:25 | 52.15871 | -3.68735 | 41218 ft | 500 kts | 120° |
| 2026-04-25 20:26 | 52.12508 | -3.58866 | 41217 ft | 500 kts | 120° |
| 2026-04-25 20:26 | 52.09680 | -3.50595 | 41216 ft | 500 kts | 120° |
| 2026-04-25 20:27 | 52.05739 | -3.39116 | 41214 ft | 499 kts | 120° |
| 2026-04-25 20:27 | 52.02347 | -3.29278 | 41219 ft | 499 kts | 120° |
| 2026-04-25 20:28 | 51.98950 | -3.19464 | 41234 ft | 499 kts | 120° |
| 2026-04-25 20:28 | 51.95536 | -3.09642 | 41248 ft | 500 kts | 121° |
| 2026-04-25 20:29 | 51.92120 | -2.99849 | 41265 ft | 500 kts | 121° |
| 2026-04-25 20:29 | 51.88691 | -2.90057 | 41275 ft | 500 kts | 121° |
| 2026-04-25 20:30 | 51.85263 | -2.80309 | 41216 ft | 500 kts | 121° |
| 2026-04-25 20:30 | 51.81823 | -2.70561 | 41212 ft | 499 kts | 121° |
| 2026-04-25 20:31 | 51.78367 | -2.60809 | 41213 ft | 499 kts | 121° |
| 2026-04-25 20:31 | 51.74889 | -2.51031 | 41225 ft | 500 kts | 121° |
| 2026-04-25 20:32 | 51.71423 | -2.41326 | 41204 ft | 500 kts | 121° |
| 2026-04-25 20:32 | 51.67949 | -2.31633 | 41211 ft | 500 kts | 121° |
| 2026-04-25 20:33 | 51.64455 | -2.21921 | 41231 ft | 500 kts | 121° |
| 2026-04-25 20:33 | 51.62116 | -2.15441 | 41232 ft | 502 kts | 121° |
| 2026-04-25 20:34 | 51.57449 | -2.02564 | 41226 ft | 500 kts | 121° |
| 2026-04-25 20:34 | 51.53933 | -1.92901 | 40780 ft | 498 kts | 121° |
| 2026-04-25 20:35 | 51.52189 | -1.88123 | 40203 ft | 497 kts | 121° |
| 2026-04-25 20:35 | 51.50441 | -1.83342 | 39562 ft | 496 kts | 121° |
| 2026-04-25 20:35 | 51.48688 | -1.78556 | 38972 ft | 495 kts | 121° |
| 2026-04-25 20:35 | 51.46945 | -1.73809 | 38232 ft | 494 kts | 121° |
| 2026-04-25 20:36 | 51.45190 | -1.69038 | 37400 ft | 496 kts | 121° |
| 2026-04-25 20:36 | 51.43448 | -1.64310 | 36661 ft | 498 kts | 121° |
| 2026-04-25 20:36 | 51.41661 | -1.59472 | 36298 ft | 501 kts | 121° |
| 2026-04-25 20:36 | 51.39914 | -1.54750 | 36220 ft | 505 kts | 121° |
| 2026-04-25 20:37 | 51.36286 | -1.44969 | 36216 ft | 508 kts | 121° |
| 2026-04-25 20:37 | 51.32668 | -1.35249 | 36058 ft | 507 kts | 121° |
| 2026-04-25 20:38 | 51.30879 | -1.30454 | 35515 ft | 507 kts | 121° |
| 2026-04-25 20:38 | 51.29146 | -1.25821 | 35263 ft | 508 kts | 121° |
| 2026-04-25 20:38 | 51.25399 | -1.15833 | 35196 ft | 511 kts | 121° |
| 2026-04-25 20:39 | 51.21750 | -1.06142 | 35209 ft | 511 kts | 121° |
| 2026-04-25 20:39 | 51.19324 | -0.99721 | 35211 ft | 510 kts | 122° |
| 2026-04-25 20:40 | 51.14412 | -0.86765 | 35238 ft | 509 kts | 122° |
| 2026-04-25 20:40 | 51.11099 | -0.77050 | 35244 ft | 485 kts | 111° |
| 2026-04-25 20:41 | 51.10040 | -0.72088 | 35245 ft | 473 kts | 106° |
| 2026-04-25 20:41 | 51.09115 | -0.67084 | 35060 ft | 468 kts | 106° |
| 2026-04-25 20:41 | 51.08207 | -0.62075 | 34331 ft | 471 kts | 105° |
| 2026-04-25 20:41 | 51.07113 | -0.57210 | 33648 ft | 477 kts | 114° |
| 2026-04-25 20:42 | 51.05559 | -0.52607 | 33294 ft | 485 kts | 122° |
| 2026-04-25 20:42 | 51.03659 | -0.48029 | 33215 ft | 491 kts | 125° |
| 2026-04-25 20:42 | 50.99653 | -0.39175 | 33211 ft | 494 kts | 127° |
| 2026-04-25 20:43 | 50.95586 | -0.30361 | 33215 ft | 493 kts | 127° |
| 2026-04-25 20:43 | 50.91636 | -0.21745 | 33213 ft | 493 kts | 126° |
| 2026-04-25 20:44 | 50.87545 | -0.12791 | 33204 ft | 493 kts | 126° |
| 2026-04-25 20:44 | 50.83543 | -0.04052 | 33217 ft | 493 kts | 126° |
| 2026-04-25 20:45 | 50.79509 | 0.04724 | 33237 ft | 493 kts | 127° |
| 2026-04-25 20:45 | 50.75185 | 0.13090 | 33239 ft | 490 kts | 138° |
| 2026-04-25 20:46 | 50.70861 | 0.18955 | 33237 ft | 490 kts | 142° |
| 2026-04-25 20:46 | 50.65587 | 0.25686 | 33238 ft | 490 kts | 142° |
| 2026-04-25 20:47 | 50.60275 | 0.32408 | 32932 ft | 477 kts | 142° |
| 2026-04-25 20:47 | 50.57731 | 0.35636 | 32025 ft | 468 kts | 142° |
| 2026-04-25 20:47 | 50.55193 | 0.38868 | 30757 ft | 470 kts | 142° |
| 2026-04-25 20:48 | 50.52607 | 0.42146 | 30138 ft | 488 kts | 142° |
| 2026-04-25 20:48 | 50.49915 | 0.45548 | 29996 ft | 504 kts | 142° |
| 2026-04-25 20:48 | 50.47209 | 0.48968 | 29706 ft | 489 kts | 142° |
| 2026-04-25 20:48 | 50.44607 | 0.52268 | 28682 ft | 478 kts | 142° |
| 2026-04-25 20:49 | 50.42107 | 0.55429 | 27556 ft | 477 kts | 142° |
| 2026-04-25 20:49 | 50.39454 | 0.58768 | 26740 ft | 478 kts | 142° |
| 2026-04-25 20:49 | 50.36849 | 0.62041 | 26334 ft | 470 kts | 142° |
| 2026-04-25 20:49 | 50.34338 | 0.65195 | 26244 ft | 458 kts | 142° |
| 2026-04-25 20:50 | 50.31865 | 0.68304 | 26235 ft | 460 kts | 142° |
| 2026-04-25 20:50 | 50.29349 | 0.71455 | 26233 ft | 462 kts | 142° |
| 2026-04-25 20:50 | 50.26852 | 0.74575 | 26230 ft | 462 kts | 142° |
| 2026-04-25 20:50 | 50.24456 | 0.77564 | 26231 ft | 462 kts | 142° |
| 2026-04-25 20:51 | 50.21845 | 0.80819 | 26233 ft | 462 kts | 142° |
| 2026-04-25 20:51 | 50.19292 | 0.83999 | 26232 ft | 462 kts | 142° |
| 2026-04-25 20:51 | 50.16795 | 0.87110 | 26230 ft | 462 kts | 142° |
| 2026-04-25 20:51 | 50.14282 | 0.90233 | 26232 ft | 462 kts | 142° |
| 2026-04-25 20:52 | 50.11767 | 0.93351 | 26234 ft | 461 kts | 142° |
| 2026-04-25 20:52 | 50.10093 | 0.95424 | 26232 ft | 461 kts | 142° |
| 2026-04-25 20:52 | 50.06741 | 0.99551 | 26232 ft | 460 kts | 143° |
| 2026-04-25 20:52 | 50.04035 | 1.02148 | 26238 ft | 458 kts | 155° |
| 2026-04-25 20:53 | 50.01150 | 1.04301 | 26232 ft | 458 kts | 156° |
| 2026-04-25 20:53 | 49.98309 | 1.06416 | 25897 ft | 453 kts | 155° |
| 2026-04-25 20:53 | 49.95459 | 1.08559 | 25225 ft | 452 kts | 155° |
| 2026-04-25 20:53 | 49.92654 | 1.10666 | 24621 ft | 447 kts | 155° |
| 2026-04-25 20:54 | 49.89896 | 1.12736 | 23697 ft | 440 kts | 155° |
| 2026-04-25 20:54 | 49.87135 | 1.14805 | 22446 ft | 435 kts | 155° |
| 2026-04-25 20:54 | 49.84434 | 1.16827 | 21328 ft | 428 kts | 155° |
| 2026-04-25 20:54 | 49.81782 | 1.18810 | 20281 ft | 420 kts | 155° |
| 2026-04-25 20:55 | 49.79145 | 1.20779 | 19433 ft | 418 kts | 155° |
| 2026-04-25 20:55 | 49.76530 | 1.22729 | 18969 ft | 413 kts | 155° |
| 2026-04-25 20:55 | 49.73982 | 1.24628 | 18562 ft | 405 kts | 155° |
| 2026-04-25 20:55 | 49.71497 | 1.26478 | 18193 ft | 386 kts | 155° |
| 2026-04-25 20:56 | 49.69128 | 1.28239 | 17794 ft | 368 kts | 155° |
| 2026-04-25 20:56 | 49.66890 | 1.29902 | 17413 ft | 352 kts | 155° |
| 2026-04-25 20:56 | 49.64711 | 1.31518 | 16856 ft | 343 kts | 155° |
| 2026-04-25 20:56 | 49.62518 | 1.32910 | 16189 ft | 336 kts | 166° |
| 2026-04-25 20:57 | 49.60224 | 1.33357 | 15758 ft | 331 kts | 181° |
| 2026-04-25 20:57 | 49.57938 | 1.33381 | 15402 ft | 327 kts | 181° |
| 2026-04-25 20:57 | 49.55671 | 1.33372 | 15009 ft | 324 kts | 181° |
| 2026-04-25 20:57 | 49.53447 | 1.33358 | 14623 ft | 321 kts | 181° |
| 2026-04-25 20:58 | 49.51221 | 1.33342 | 14214 ft | 319 kts | 181° |
| 2026-04-25 20:58 | 49.49007 | 1.33319 | 13794 ft | 317 kts | 181° |
| 2026-04-25 20:58 | 49.46801 | 1.33292 | 13341 ft | 315 kts | 181° |
| 2026-04-25 20:58 | 49.44620 | 1.33262 | 12919 ft | 312 kts | 181° |
| 2026-04-25 20:59 | 49.42454 | 1.33228 | 12496 ft | 310 kts | 181° |
| 2026-04-25 20:59 | 49.40309 | 1.33194 | 12071 ft | 308 kts | 181° |
| 2026-04-25 20:59 | 49.38174 | 1.33156 | 11659 ft | 306 kts | 181° |
| 2026-04-25 20:59 | 49.36056 | 1.33117 | 11223 ft | 302 kts | 181° |
| 2026-04-25 21:00 | 49.33987 | 1.33248 | 10645 ft | 298 kts | 171° |
| 2026-04-25 21:00 | 49.33297 | 1.33512 | 10512 ft | 298 kts | 161° |
| 2026-04-25 21:00 | 49.30110 | 1.39792 | 10215 ft | 295 kts | 96° |
| 2026-04-25 21:01 | 49.29944 | 1.42939 | 10213 ft | 296 kts | 92° |
| 2026-04-25 21:01 | 49.29847 | 1.46072 | 10213 ft | 296 kts | 91° |
| 2026-04-25 21:01 | 49.29756 | 1.49235 | 10214 ft | 296 kts | 91° |
| 2026-04-25 21:01 | 49.29666 | 1.52397 | 10215 ft | 296 kts | 91° |
| 2026-04-25 21:02 | 49.29578 | 1.55495 | 10212 ft | 296 kts | 91° |
| 2026-04-25 21:02 | 49.29486 | 1.58697 | 10217 ft | 296 kts | 91° |
| 2026-04-25 21:02 | 49.29394 | 1.61833 | 10217 ft | 296 kts | 91° |
| 2026-04-25 21:02 | 49.29303 | 1.64970 | 10118 ft | 297 kts | 91° |
| 2026-04-25 21:03 | 49.29214 | 1.68171 | 9546 ft | 302 kts | 91° |
| 2026-04-25 21:03 | 49.29142 | 1.71350 | 9199 ft | 295 kts | 94° |
| 2026-04-25 21:03 | 49.28627 | 1.74373 | 8817 ft | 292 kts | 116° |
| 2026-04-25 21:03 | 49.27363 | 1.76734 | 8391 ft | 290 kts | 143° |
| 2026-04-25 21:04 | 49.25633 | 1.78173 | 7993 ft | 288 kts | 156° |
| 2026-04-25 21:04 | 49.23784 | 1.79397 | 7536 ft | 287 kts | 156° |
| 2026-04-25 21:04 | 49.21958 | 1.80611 | 7172 ft | 285 kts | 156° |
| 2026-04-25 21:04 | 49.20148 | 1.81825 | 6761 ft | 284 kts | 156° |
| 2026-04-25 21:05 | 49.18333 | 1.83045 | 6351 ft | 281 kts | 156° |
| 2026-04-25 21:05 | 49.16568 | 1.84233 | 5956 ft | 279 kts | 156° |
| 2026-04-25 21:05 | 49.14801 | 1.85416 | 5517 ft | 277 kts | 156° |
| 2026-04-25 21:05 | 49.13032 | 1.86584 | 5078 ft | 277 kts | 156° |
| 2026-04-25 21:06 | 49.11244 | 1.87763 | 4658 ft | 274 kts | 156° |
| 2026-04-25 21:06 | 49.09532 | 1.88893 | 4469 ft | 264 kts | 156° |
| 2026-04-25 21:06 | 49.07881 | 1.89983 | 4291 ft | 253 kts | 156° |
| 2026-04-25 21:06 | 49.06824 | 1.90703 | 4157 ft | 248 kts | 153° |
| 2026-04-25 21:07 | 49.05213 | 1.92916 | 4011 ft | 232 kts | 119° |
| 2026-04-25 21:07 | 49.04500 | 1.95081 | 3998 ft | 218 kts | 112° |
| 2026-04-25 21:07 | 49.03896 | 1.97171 | 3999 ft | 213 kts | 111° |
| 2026-04-25 21:07 | 49.03314 | 1.99193 | 3995 ft | 214 kts | 111° |
| 2026-04-25 21:08 | 49.02713 | 2.01304 | 3991 ft | 215 kts | 111° |
| 2026-04-25 21:08 | 49.02115 | 2.03393 | 3989 ft | 215 kts | 111° |
| 2026-04-25 21:08 | 49.01514 | 2.05506 | 3990 ft | 215 kts | 111° |
| 2026-04-25 21:08 | 49.00914 | 2.07598 | 3989 ft | 215 kts | 112° |
| 2026-04-25 21:09 | 49.00438 | 2.12009 | 3992 ft | 212 kts | 87° |
| 2026-04-25 21:09 | 49.00492 | 2.14214 | 3989 ft | 211 kts | 85° |
| 2026-04-25 21:09 | 49.00582 | 2.16482 | 3990 ft | 212 kts | 84° |
| 2026-04-25 21:10 | 49.00664 | 2.18685 | 3987 ft | 212 kts | 85° |
| 2026-04-25 21:10 | 49.00769 | 2.20921 | 3991 ft | 212 kts | 83° |
| 2026-04-25 21:10 | 49.00891 | 2.23156 | 3986 ft | 211 kts | 83° |
| 2026-04-25 21:10 | 49.01014 | 2.25389 | 3874 ft | 211 kts | 83° |
| 2026-04-25 21:11 | 49.01131 | 2.27560 | 3614 ft | 201 kts | 83° |
| 2026-04-25 21:11 | 49.01240 | 2.29624 | 3395 ft | 188 kts | 82° |
| 2026-04-25 21:11 | 49.01346 | 2.31577 | 3142 ft | 182 kts | 83° |
| 2026-04-25 21:11 | 49.01448 | 2.33470 | 2884 ft | 184 kts | 83° |
| 2026-04-25 21:12 | 49.01553 | 2.35428 | 2619 ft | 182 kts | 84° |
| 2026-04-25 21:12 | 49.01655 | 2.37333 | 2377 ft | 181 kts | 83° |
| 2026-04-25 21:12 | 49.01757 | 2.39223 | 2135 ft | 172 kts | 83° |
| 2026-04-25 21:12 | 49.01819 | 2.40391 | 1986 ft | 163 kts | 83° |
| 2026-04-25 21:13 | 49.01937 | 2.42567 | 1707 ft | 146 kts | 83° |
| 2026-04-25 21:13 | 49.02016 | 2.44038 | 1498 ft | 135 kts | 82° |
| 2026-04-25 21:13 | 49.02091 | 2.45414 | 1336 ft | 126 kts | 83° |
| 2026-04-25 21:13 | 49.02161 | 2.46747 | 1185 ft | 127 kts | 83° |
| 2026-04-25 21:14 | 49.02222 | 2.48119 | 951 ft | 131 kts | 82° |
| 2026-04-25 21:14 | 49.02302 | 2.49492 | 734 ft | 130 kts | 80° |
| 2026-04-25 21:14 | 49.02390 | 2.50854 | 584 ft | 130 kts | 84° |
| 2026-04-25 21:14 | 49.02461 | 2.52233 | 429 ft | 130 kts | 81° |
| 2026-04-25 21:15 | 49.02526 | 2.53587 | 386 ft | 121 kts | 82° |
| 2026-04-25 21:15 | 49.02591 | 2.54753 | 361 ft | 91 kts | 85° |
| 2026-04-25 21:15 | 49.02628 | 2.55406 | 363 ft | 34 kts | 85° |
| 2026-04-25 21:15 | 49.02635 | 2.55549 | 366 ft | 4 kts | 87° |
| 2026-04-25 21:16 | 49.02625 | 2.55775 | 362 ft | 32 kts | 106° |
| 2026-04-25 21:16 | 49.02534 | 2.55934 | 368 ft | 0 kts | 157° |
| 2026-04-25 21:17 | 49.02498 | 2.55943 | 367 ft | 8 kts | 176° |
| 2026-04-25 21:17 | 49.02474 | 2.55946 | 366 ft | 10 kts | 176° |
| 2026-04-25 21:17 | 49.02399 | 2.55956 | 367 ft | 13 kts | 175° |
| 2026-04-25 21:17 | 49.02295 | 2.55970 | 366 ft | 17 kts | 175° |
| 2026-04-25 21:18 | 49.02194 | 2.55982 | 362 ft | 9 kts | 175° |
| 2026-04-25 21:18 | 49.02180 | 2.55984 | 362 ft | 3 kts | 174° |
| 2026-04-25 21:18 | 49.02131 | 2.56012 | 367 ft | 12 kts | 145° |
| 2026-04-25 21:18 | 49.02097 | 2.56154 | 365 ft | 17 kts | 91° |
| 2026-04-25 21:19 | 49.02053 | 2.56324 | 362 ft | 16 kts | 125° |
| 2026-04-25 21:19 | 49.02026 | 2.56448 | 365 ft | 12 kts | 92° |
| 2026-04-25 21:19 | 49.02032 | 2.56590 | 367 ft | 15 kts | 85° |
| 2026-04-25 21:19 | 49.02037 | 2.56681 | 368 ft | 0 kts | 85° |
| 2026-04-25 21:24 | 49.02037 | 2.56682 | 368 ft | 1 kts | 85° |
| 2026-04-25 21:24 | 49.02040 | 2.56753 | 368 ft | 11 kts | 86° |
| 2026-04-25 21:25 | 49.02046 | 2.56867 | 367 ft | 10 kts | 85° |
| 2026-04-25 21:25 | 49.02051 | 2.56963 | 361 ft | 9 kts | 85° |
| 2026-04-25 21:25 | 49.02056 | 2.57044 | 363 ft | 7 kts | 85° |
| 2026-04-25 21:25 | 49.02059 | 2.57123 | 361 ft | 8 kts | 86° |
| 2026-04-25 21:26 | 49.02065 | 2.57233 | 366 ft | 13 kts | 86° |
| 2026-04-25 21:26 | 49.02072 | 2.57381 | 367 ft | 14 kts | 85° |
| 2026-04-25 21:26 | 49.02078 | 2.57517 | 366 ft | 12 kts | 86° |
| 2026-04-25 21:26 | 49.02085 | 2.57636 | 365 ft | 10 kts | 84° |
| 2026-04-25 21:27 | 49.02087 | 2.57746 | 364 ft | 13 kts | 92° |
| 2026-04-25 21:27 | 49.02059 | 2.57892 | 366 ft | 14 kts | 116° |
| 2026-04-25 21:27 | 49.02004 | 2.58005 | 368 ft | 14 kts | 134° |
| 2026-04-25 21:27 | 49.01922 | 2.58084 | 369 ft | 13 kts | 158° |
| 2026-04-25 21:28 | 49.01864 | 2.58110 | 367 ft | 12 kts | 167° |
| 2026-04-25 21:28 | 49.01789 | 2.58128 | 363 ft | 10 kts | 174° |
| 2026-04-25 21:28 | 49.01708 | 2.58138 | 366 ft | 8 kts | 175° |
| 2026-04-25 21:28 | 49.01672 | 2.58142 | 364 ft | 7 kts | 175° |
| 2026-04-25 21:29 | 49.01625 | 2.58148 | 366 ft | 7 kts | 175° |
| 2026-04-25 21:29 | 49.01582 | 2.58153 | 367 ft | 6 kts | 175° |
| 2026-04-25 21:29 | 49.01548 | 2.58157 | 364 ft | 4 kts | 175° |
| 2026-04-25 21:29 | 49.01520 | 2.58160 | 361 ft | 4 kts | 176° |
| 2026-04-25 21:30 | 49.01473 | 2.58166 | 367 ft | 9 kts | 175° |
| 2026-04-25 21:30 | 49.01385 | 2.58179 | 367 ft | 14 kts | 174° |
| 2026-04-25 21:30 | 49.01296 | 2.58190 | 366 ft | 12 kts | 175° |
| 2026-04-25 21:30 | 49.01243 | 2.58197 | 365 ft | 11 kts | 175° |
| 2026-04-25 21:31 | 49.01184 | 2.58204 | 365 ft | 0 kts | 175° |
| 2026-04-25 21:33 | 49.01179 | 2.58205 | 365 ft | 3 kts | 175° |
| 2026-04-25 21:33 | 49.01121 | 2.58212 | 367 ft | 14 kts | 175° |
| 2026-04-25 21:34 | 49.01028 | 2.58224 | 363 ft | 13 kts | 175° |
| 2026-04-25 21:34 | 49.00953 | 2.58236 | 362 ft | 9 kts | 173° |
| 2026-04-25 21:34 | 49.00877 | 2.58260 | 362 ft | 13 kts | 158° |
| 2026-04-25 21:34 | 49.00835 | 2.58355 | 366 ft | 10 kts | 97° |
| 2026-04-25 21:35 | 49.00834 | 2.58410 | 368 ft | 0 kts | 86° |
| 2026-04-25 21:36 | 49.00835 | 2.58428 | 361 ft | 6 kts | 86° |
| 2026-04-25 21:37 | 49.00838 | 2.58491 | 368 ft | 5 kts | 86° |
| 2026-04-25 21:37 | 49.00839 | 2.58524 | 367 ft | 4 kts | 85° |
| 2026-04-25 21:37 | 49.00842 | 2.58575 | 364 ft | 3 kts | 85° |
| 2026-04-25 21:37 | 49.00845 | 2.58616 | 363 ft | 8 kts | 85° |
| 2026-04-25 21:38 | 49.00846 | 2.58708 | 365 ft | 8 kts | 96° |
| 2026-04-25 21:38 | 49.00818 | 2.58780 | 369 ft | 10 kts | 139° |
| 2026-04-25 21:38 | 49.00744 | 2.58812 | 366 ft | 12 kts | 174° |
| 2026-04-25 21:38 | 49.00664 | 2.58825 | 365 ft | 11 kts | 174° |
| 2026-04-25 21:39 | 49.00596 | 2.58835 | 361 ft | 9 kts | 173° |
| 2026-04-25 21:39 | 49.00564 | 2.58877 | 368 ft | 4 kts | 109° |
| 2026-04-25 21:39 | 49.00565 | 2.58887 | 368 ft | 0 kts | 84° |
| 2026-04-25 21:39 | 49.00566 | 2.58900 | 367 ft | 2 kts | 81° |
| 2026-04-25 21:40 | 49.00567 | 2.58904 | 367 ft | 0 kts | 81° |
| 2026-04-25 21:40 | 49.00568 | 2.58911 | 366 ft | 2 kts | 76° |
| 2026-04-25 21:40 | 49.00569 | 2.58919 | 366 ft | 3 kts | 79° |
| 2026-04-25 21:41 | 49.00572 | 2.58953 | 365 ft | 1 kts | 82° |
| 2026-04-25 21:41 | 49.00572 | 2.58955 | 365 ft | 0 kts | 82° |
| 2026-04-25 21:41 | 49.00572 | 2.58958 | 365 ft | 1 kts | 82° |
| 2026-04-25 21:41 | 49.00573 | 2.58965 | 365 ft | 0 kts | 83° |
| 2026-04-25 21:42 | 49.00573 | 2.58971 | 365 ft | 0 kts | 83° |